Wetterdaten: Mittwoch, 01.04.2015
Datum Zeit Temp. Aussen +5cm Feuchte Auss Luftdruck Regen Sonnenschein Regendauer Solar Windben
01.04.2015 00:00 4,7 C 2,8 C 82 % 1009,7 hPa 0,0 l/m 0 min 0 min 0 W/m 20,9 km/h (4 Bft)
01.04.2015 00:02 4,7 C 2,8 C 82 % 1009,8 hPa 0,0 l/m 0 min 0 min 0 W/m 23,0 km/h (4 Bft)
01.04.2015 00:06 4,7 C 2,8 C 82 % 1009,7 hPa 0,0 l/m 0 min 0 min 0 W/m 37,7 km/h (5 Bft)
01.04.2015 00:08 4,7 C 2,8 C 82 % 1009,8 hPa 0,0 l/m 0 min 0 min 0 W/m 25,1 km/h (4 Bft)
01.04.2015 00:10 4,7 C 2,8 C 82 % 1009,9 hPa 0,0 l/m 0 min 0 min 0 W/m 23,0 km/h (4 Bft)
01.04.2015 00:12 4,7 C 2,8 C 82 % 1009,9 hPa 0,0 l/m 0 min 0 min 0 W/m 29,3 km/h (5 Bft)
01.04.2015 00:14 4,7 C 2,8 C 83 % 1009,8 hPa 0,0 l/m 0 min 0 min 0 W/m 27,2 km/h (4 Bft)
01.04.2015 00:16 4,7 C 2,8 C 83 % 1010,0 hPa 0,0 l/m 0 min 0 min 0 W/m 27,2 km/h (4 Bft)
01.04.2015 00:18 4,7 C 2,8 C 83 % 1010,0 hPa 0,0 l/m 0 min 0 min 0 W/m 29,3 km/h (5 Bft)
01.04.2015 00:20 4,7 C 2,8 C 83 % 1009,9 hPa 0,0 l/m 0 min 0 min 0 W/m 23,0 km/h (4 Bft)
01.04.2015 00:22 4,8 C 2,8 C 82 % 1010,0 hPa 0,0 l/m 0 min 0 min 0 W/m 27,2 km/h (4 Bft)
01.04.2015 00:24 4,8 C 2,8 C 82 % 1010,0 hPa 0,0 l/m 0 min 0 min 0 W/m 29,3 km/h (5 Bft)
01.04.2015 00:26 4,8 C 2,8 C 82 % 1010,1 hPa 0,0 l/m 0 min 0 min 0 W/m 31,4 km/h (5 Bft)
01.04.2015 00:28 4,8 C 2,8 C 82 % 1010,0 hPa 0,0 l/m 0 min 0 min 0 W/m 41,8 km/h (6 Bft)
01.04.2015 00:30 4,9 C 2,8 C 82 % 1009,9 hPa 0,0 l/m 0 min 0 min 0 W/m 25,1 km/h (4 Bft)
01.04.2015 00:32 4,9 C 2,8 C 82 % 1010,0 hPa 0,0 l/m 0 min 0 min 0 W/m 25,1 km/h (4 Bft)
01.04.2015 00:34 4,9 C 3,3 C 82 % 1010,0 hPa 0,0 l/m 0 min 0 min 0 W/m 29,3 km/h (5 Bft)
01.04.2015 00:36 4,9 C 3,3 C 82 % 1010,0 hPa 0,0 l/m 0 min 0 min 0 W/m 33,5 km/h (5 Bft)
01.04.2015 00:38 5,0 C 3,3 C 82 % 1010,1 hPa 0,0 l/m 0 min 0 min 0 W/m 25,1 km/h (4 Bft)
01.04.2015 00:40 5,0 C 3,3 C 82 % 1010,0 hPa 0,0 l/m 0 min 0 min 0 W/m 29,3 km/h (5 Bft)
01.04.2015 00:42 5,0 C 3,3 C 82 % 1010,0 hPa 0,0 l/m 0 min 0 min 0 W/m 33,5 km/h (5 Bft)
01.04.2015 00:44 5,0 C 3,3 C 82 % 1010,1 hPa 0,0 l/m 0 min 0 min 0 W/m 33,5 km/h (5 Bft)
01.04.2015 00:46 5,1 C 3,3 C 82 % 1010,1 hPa 0,0 l/m 0 min 0 min 0 W/m 31,4 km/h (5 Bft)
01.04.2015 00:48 5,1 C 3,3 C 82 % 1010,1 hPa 0,0 l/m 0 min 0 min 0 W/m 23,0 km/h (4 Bft)
01.04.2015 00:50 5,1 C 3,3 C 82 % 1010,3 hPa 0,0 l/m 0 min 0 min 0 W/m 29,3 km/h (5 Bft)
01.04.2015 00:52 5,1 C 3,3 C 82 % 1010,2 hPa 0,0 l/m 0 min 0 min 0 W/m 29,3 km/h (5 Bft)
01.04.2015 00:54 5,1 C 3,3 C 82 % 1010,1 hPa 0,0 l/m 0 min 0 min 0 W/m 35,6 km/h (5 Bft)
01.04.2015 00:56 5,2 C 3,9 C 82 % 1010,2 hPa 0,0 l/m 0 min 0 min 0 W/m 29,3 km/h (5 Bft)
01.04.2015 00:58 5,2 C 3,9 C 82 % 1010,3 hPa 0,0 l/m 0 min 0 min 0 W/m 35,6 km/h (5 Bft)
01.04.2015 01:00 5,3 C 3,9 C 83 % 1010,3 hPa 0,0 l/m 0 min 0 min 0 W/m 33,5 km/h (5 Bft)
01.04.2015 01:02 5,3 C 3,9 C 83 % 1010,4 hPa 0,0 l/m 0 min 0 min 0 W/m 25,1 km/h (4 Bft)
01.04.2015 01:04 5,3 C 3,9 C 83 % 1010,4 hPa 0,0 l/m 0 min 0 min 0 W/m 31,4 km/h (5 Bft)
01.04.2015 01:06 5,3 C 3,9 C 83 % 1010,4 hPa 0,0 l/m 0 min 0 min 0 W/m 39,7 km/h (6 Bft)
01.04.2015 01:08 5,4 C 3,9 C 83 % 1010,4 hPa 0,0 l/m 0 min 0 min 0 W/m 41,8 km/h (6 Bft)
01.04.2015 01:10 5,4 C 3,9 C 83 % 1010,4 hPa 0,0 l/m 0 min 2 min 0 W/m 37,7 km/h (5 Bft)
01.04.2015 01:12 5,4 C 3,9 C 83 % 1010,4 hPa 0,0 l/m 0 min 0 min 0 W/m 37,7 km/h (5 Bft)
01.04.2015 01:14 5,4 C 3,9 C 82 % 1010,4 hPa 0,0 l/m 0 min 2 min 0 W/m 37,7 km/h (5 Bft)
01.04.2015 01:16 5,4 C 3,3 C 82 % 1010,4 hPa 0,0 l/m 0 min 2 min 0 W/m 23,0 km/h (4 Bft)
01.04.2015 01:18 5,4 C 3,3 C 82 % 1010,5 hPa 0,0 l/m 0 min 2 min 0 W/m 50,2 km/h (7 Bft)
01.04.2015 01:20 5,3 C 2,2 C 81 % 1010,4 hPa 0,0 l/m 0 min 2 min 0 W/m 31,4 km/h (5 Bft)
01.04.2015 01:22 5,2 C 1,7 C 81 % 1010,4 hPa 0,0 l/m 0 min 2 min 0 W/m 35,6 km/h (5 Bft)
01.04.2015 01:24 5,1 C 1,1 C 81 % 1010,5 hPa 0,2 l/m 0 min 2 min 0 W/m 39,7 km/h (6 Bft)
01.04.2015 01:26 5,0 C 0,6 C 81 % 1010,5 hPa 0,0 l/m 0 min 2 min 0 W/m 37,7 km/h (5 Bft)
01.04.2015 01:28 4,8 C -0,6 C 82 % 1010,4 hPa 0,0 l/m 0 min 2 min 0 W/m 27,2 km/h (4 Bft)
01.04.2015 01:30 4,7 C -0,6 C 83 % 1010,3 hPa 0,0 l/m 0 min 2 min 0 W/m 16,7 km/h (3 Bft)
01.04.2015 01:32 4,6 C 0,0 C 83 % 1010,4 hPa 0,0 l/m 0 min 2 min 0 W/m 27,2 km/h (4 Bft)
01.04.2015 01:34 4,4 C 0,6 C 84 % 1010,4 hPa 0,0 l/m 0 min 2 min 0 W/m 52,3 km/h (7 Bft)
01.04.2015 01:36 4,3 C 1,1 C 85 % 1010,5 hPa 0,0 l/m 0 min 2 min 0 W/m 35,6 km/h (5 Bft)
01.04.2015 01:38 4,2 C 1,1 C 85 % 1010,6 hPa 0,0 l/m 0 min 2 min 0 W/m 37,7 km/h (5 Bft)
01.04.2015 01:40 4,2 C 1,1 C 86 % 1010,5 hPa 0,0 l/m 0 min 2 min 0 W/m 37,7 km/h (5 Bft)
01.04.2015 01:42 4,1 C 1,1 C 87 % 1010,5 hPa 0,0 l/m 0 min 0 min 0 W/m 27,2 km/h (4 Bft)
01.04.2015 01:44 4,1 C 1,1 C 87 % 1010,5 hPa 0,0 l/m 0 min 0 min 0 W/m 33,5 km/h (5 Bft)
01.04.2015 01:46 4,0 C 1,1 C 87 % 1010,6 hPa 0,0 l/m 0 min 0 min 0 W/m 29,3 km/h (5 Bft)
01.04.2015 01:48 3,9 C 1,1 C 87 % 1010,5 hPa 0,0 l/m 0 min 0 min 0 W/m 37,7 km/h (5 Bft)
01.04.2015 01:50 3,9 C 1,1 C 88 % 1010,5 hPa 0,0 l/m 0 min 0 min 0 W/m 25,1 km/h (4 Bft)
01.04.2015 01:52 3,9 C 1,1 C 88 % 1010,6 hPa 0,0 l/m 0 min 2 min 0 W/m 43,9 km/h (6 Bft)
01.04.2015 01:54 3,9 C 1,1 C 87 % 1010,6 hPa 0,0 l/m 0 min 0 min 0 W/m 39,7 km/h (6 Bft)
01.04.2015 01:56 3,9 C 1,1 C 87 % 1010,6 hPa 0,0 l/m 0 min 0 min 0 W/m 31,4 km/h (5 Bft)
01.04.2015 01:58 3,9 C 1,1 C 87 % 1010,7 hPa 0,0 l/m 0 min 0 min 0 W/m 29,3 km/h (5 Bft)
01.04.2015 02:00 3,9 C 1,1 C 87 % 1010,5 hPa 0,0 l/m 0 min 0 min 0 W/m 33,5 km/h (5 Bft)
01.04.2015 02:02 3,9 C 1,1 C 86 % 1010,8 hPa 0,0 l/m 0 min 0 min 0 W/m 33,5 km/h (5 Bft)
01.04.2015 02:04 3,9 C 1,1 C 86 % 1010,8 hPa 0,0 l/m 0 min 0 min 0 W/m 37,7 km/h (5 Bft)
01.04.2015 02:06 3,9 C 1,1 C 85 % 1010,8 hPa 0,0 l/m 0 min 0 min 0 W/m 35,6 km/h (5 Bft)
01.04.2015 02:08 3,9 C 1,1 C 85 % 1010,7 hPa 0,0 l/m 0 min 0 min 0 W/m 25,1 km/h (4 Bft)
01.04.2015 02:10 3,9 C 1,1 C 84 % 1010,9 hPa 0,0 l/m 0 min 0 min 0 W/m 37,7 km/h (5 Bft)
01.04.2015 02:12 3,9 C 1,1 C 84 % 1010,8 hPa 0,0 l/m 0 min 0 min 0 W/m 48,1 km/h (6 Bft)
01.04.2015 02:14 3,9 C 1,1 C 83 % 1010,9 hPa 0,0 l/m 0 min 0 min 0 W/m 52,3 km/h (7 Bft)
01.04.2015 02:16 4,0 C 1,1 C 82 % 1010,9 hPa 0,0 l/m 0 min 0 min 0 W/m 39,7 km/h (6 Bft)
01.04.2015 02:18 4,1 C 1,1 C 82 % 1010,9 hPa 0,0 l/m 0 min 2 min 0 W/m 33,5 km/h (5 Bft)
01.04.2015 02:20 4,1 C 1,1 C 81 % 1010,9 hPa 0,0 l/m 0 min 2 min 0 W/m 31,4 km/h (5 Bft)
01.04.2015 02:22 4,2 C 1,1 C 81 % 1010,9 hPa 0,0 l/m 0 min 0 min 0 W/m 27,2 km/h (4 Bft)
01.04.2015 02:24 4,2 C 1,1 C 81 % 1010,9 hPa 0,0 l/m 0 min 0 min 0 W/m 18,8 km/h (3 Bft)
01.04.2015 02:26 4,2 C 1,1 C 81 % 1010,9 hPa 0,0 l/m 0 min 2 min 0 W/m 29,3 km/h (5 Bft)
01.04.2015 02:28 4,2 C 1,7 C 81 % 1010,9 hPa 0,0 l/m 0 min 0 min 0 W/m 14,6 km/h (3 Bft)
01.04.2015 02:30 4,2 C 1,7 C 81 % 1011,0 hPa 0,2 l/m 0 min 0 min 0 W/m 27,2 km/h (4 Bft)
01.04.2015 02:32 4,2 C 1,7 C 81 % 1011,0 hPa 0,0 l/m 0 min 0 min 0 W/m 23,0 km/h (4 Bft)
01.04.2015 02:34 4,2 C 1,7 C 82 % 1011,0 hPa 0,0 l/m 0 min 0 min 0 W/m 25,1 km/h (4 Bft)
01.04.2015 02:36 4,2 C 1,7 C 82 % 1011,0 hPa 0,0 l/m 0 min 0 min 0 W/m 33,5 km/h (5 Bft)
01.04.2015 02:38 4,3 C 1,7 C 82 % 1011,1 hPa 0,0 l/m 0 min 0 min 0 W/m 23,0 km/h (4 Bft)
01.04.2015 02:40 4,3 C 1,7 C 82 % 1011,1 hPa 0,0 l/m 0 min 0 min 0 W/m 23,0 km/h (4 Bft)
01.04.2015 02:42 4,3 C 1,7 C 82 % 1011,0 hPa 0,0 l/m 0 min 0 min 0 W/m 29,3 km/h (5 Bft)
01.04.2015 02:44 4,3 C 1,7 C 82 % 1011,0 hPa 0,0 l/m 0 min 0 min 0 W/m 20,9 km/h (4 Bft)
01.04.2015 02:46 4,3 C 1,7 C 82 % 1011,1 hPa 0,0 l/m 0 min 0 min 0 W/m 23,0 km/h (4 Bft)
01.04.2015 02:48 4,4 C 1,7 C 82 % 1011,1 hPa 0,0 l/m 0 min 0 min 0 W/m 25,1 km/h (4 Bft)
01.04.2015 02:50 4,4 C 1,7 C 82 % 1011,2 hPa 0,2 l/m 0 min 0 min 0 W/m 23,0 km/h (4 Bft)
01.04.2015 02:52 4,4 C 1,7 C 82 % 1011,1 hPa 0,0 l/m 0 min 2 min 0 W/m 31,4 km/h (5 Bft)
01.04.2015 02:54 4,4 C 1,7 C 82 % 1011,1 hPa 0,0 l/m 0 min 0 min 0 W/m 35,6 km/h (5 Bft)
01.04.2015 02:56 4,4 C 1,7 C 81 % 1011,1 hPa 0,0 l/m 0 min 2 min 0 W/m 35,6 km/h (5 Bft)
01.04.2015 02:58 4,5 C 1,7 C 81 % 1011,1 hPa 0,0 l/m 0 min 0 min 0 W/m 31,4 km/h (5 Bft)
01.04.2015 03:00 4,6 C 1,7 C 81 % 1011,2 hPa 0,0 l/m 0 min 0 min 0 W/m 27,2 km/h (4 Bft)
01.04.2015 03:02 4,6 C 1,7 C 81 % 1011,1 hPa 0,0 l/m 0 min 0 min 0 W/m 35,6 km/h (5 Bft)
01.04.2015 03:04 4,6 C 2,2 C 80 % 1011,2 hPa 0,0 l/m 0 min 0 min 0 W/m 50,2 km/h (7 Bft)
01.04.2015 03:06 4,7 C 1,7 C 80 % 1011,2 hPa 0,0 l/m 0 min 0 min 0 W/m 27,2 km/h (4 Bft)
01.04.2015 03:08 4,7 C 1,7 C 80 % 1011,2 hPa 0,0 l/m 0 min 0 min 0 W/m 35,6 km/h (5 Bft)
01.04.2015 03:10 4,7 C 1,7 C 79 % 1011,3 hPa 0,2 l/m 0 min 0 min 0 W/m 33,5 km/h (5 Bft)
01.04.2015 03:12 4,7 C 2,2 C 79 % 1011,2 hPa 0,0 l/m 0 min 0 min 0 W/m 37,7 km/h (5 Bft)
01.04.2015 03:14 4,7 C 1,7 C 79 % 1011,3 hPa 0,0 l/m 0 min 0 min 0 W/m 31,4 km/h (5 Bft)
01.04.2015 03:16 4,7 C 1,7 C 79 % 1011,3 hPa 0,0 l/m 0 min 0 min 0 W/m 33,5 km/h (5 Bft)
01.04.2015 03:18 4,7 C 1,7 C 79 % 1011,3 hPa 0,0 l/m 0 min 0 min 0 W/m 43,9 km/h (6 Bft)
01.04.2015 03:20 4,7 C 1,7 C 79 % 1011,3 hPa 0,0 l/m 0 min 0 min 0 W/m 31,4 km/h (5 Bft)
01.04.2015 03:22 4,7 C 1,7 C 79 % 1011,4 hPa 0,0 l/m 0 min 0 min 0 W/m 29,3 km/h (5 Bft)
01.04.2015 03:24 4,7 C 1,7 C 78 % 1011,5 hPa 0,0 l/m 0 min 0 min 0 W/m 31,4 km/h (5 Bft)
01.04.2015 03:26 4,7 C 1,7 C 78 % 1011,5 hPa 0,2 l/m 0 min 0 min 0 W/m 37,7 km/h (5 Bft)
01.04.2015 03:28 4,7 C 1,7 C 78 % 1011,5 hPa 0,0 l/m 0 min 2 min 0 W/m 39,7 km/h (6 Bft)
01.04.2015 03:30 4,7 C 1,7 C 78 % 1011,5 hPa 0,0 l/m 0 min 0 min 0 W/m 39,7 km/h (6 Bft)
01.04.2015 03:32 4,7 C 2,2 C 78 % 1011,5 hPa 0,0 l/m 0 min 0 min 0 W/m 29,3 km/h (5 Bft)
01.04.2015 03:34 4,7 C 2,2 C 78 % 1011,3 hPa 0,0 l/m 0 min 0 min 0 W/m 37,7 km/h (5 Bft)
01.04.2015 03:36 4,7 C 2,2 C 78 % 1011,5 hPa 0,0 l/m 0 min 0 min 0 W/m 41,8 km/h (6 Bft)
01.04.2015 03:38 4,7 C 2,2 C 77 % 1011,4 hPa 0,0 l/m 0 min 0 min 0 W/m 31,4 km/h (5 Bft)
01.04.2015 03:40 4,7 C 2,2 C 77 % 1011,4 hPa 0,0 l/m 0 min 0 min 0 W/m 39,7 km/h (6 Bft)
01.04.2015 03:42 4,8 C 2,2 C 77 % 1011,4 hPa 0,0 l/m 0 min 0 min 0 W/m 25,1 km/h (4 Bft)
01.04.2015 03:44 4,8 C 2,2 C 77 % 1011,4 hPa 0,0 l/m 0 min 0 min 0 W/m 29,3 km/h (5 Bft)
01.04.2015 03:46 4,7 C 2,2 C 77 % 1011,4 hPa 0,0 l/m 0 min 0 min 0 W/m 33,5 km/h (5 Bft)
01.04.2015 03:48 4,8 C 2,2 C 77 % 1011,4 hPa 0,2 l/m 0 min 0 min 0 W/m 43,9 km/h (6 Bft)
01.04.2015 03:50 4,8 C 2,2 C 77 % 1011,4 hPa 0,0 l/m 0 min 0 min 0 W/m 35,6 km/h (5 Bft)
01.04.2015 03:52 4,7 C 2,2 C 77 % 1011,4 hPa 0,0 l/m 0 min 2 min 0 W/m 25,1 km/h (4 Bft)
01.04.2015 03:54 4,8 C 2,2 C 78 % 1011,3 hPa 0,0 l/m 0 min 2 min 0 W/m 35,6 km/h (5 Bft)
01.04.2015 03:56 4,8 C 2,2 C 78 % 1011,5 hPa 0,0 l/m 0 min 0 min 0 W/m 37,7 km/h (5 Bft)
01.04.2015 03:58 4,7 C 2,2 C 78 % 1011,5 hPa 0,0 l/m 0 min 0 min 0 W/m 37,7 km/h (5 Bft)
01.04.2015 04:00 4,8 C 2,2 C 78 % 1011,4 hPa 0,0 l/m 0 min 2 min 0 W/m 27,2 km/h (4 Bft)
01.04.2015 04:02 4,7 C 2,2 C 78 % 1011,4 hPa 0,0 l/m 0 min 0 min 0 W/m 31,4 km/h (5 Bft)
01.04.2015 04:04 4,7 C 2,2 C 78 % 1011,6 hPa 0,2 l/m 0 min 0 min 0 W/m 33,5 km/h (5 Bft)
01.04.2015 04:06 4,7 C 2,2 C 78 % 1011,4 hPa 0,0 l/m 0 min 0 min 0 W/m 27,2 km/h (4 Bft)
01.04.2015 04:08 4,8 C 2,2 C 78 % 1011,5 hPa 0,0 l/m 0 min 0 min 0 W/m 39,7 km/h (6 Bft)
01.04.2015 04:10 4,8 C 2,2 C 78 % 1011,5 hPa 0,0 l/m 0 min 0 min 0 W/m 31,4 km/h (5 Bft)
01.04.2015 04:12 4,8 C 2,2 C 77 % 1011,6 hPa 0,0 l/m 0 min 0 min 0 W/m 29,3 km/h (5 Bft)
01.04.2015 04:14 4,8 C 2,2 C 78 % 1011,5 hPa 0,0 l/m 0 min 0 min 0 W/m 31,4 km/h (5 Bft)
01.04.2015 04:16 4,8 C 2,2 C 78 % 1011,6 hPa 0,0 l/m 0 min 0 min 0 W/m 29,3 km/h (5 Bft)
01.04.2015 04:18 4,8 C 2,2 C 77 % 1011,6 hPa 0,0 l/m 0 min 0 min 0 W/m 29,3 km/h (5 Bft)
01.04.2015 04:20 4,8 C 2,2 C 77 % 1011,6 hPa 0,0 l/m 0 min 0 min 0 W/m 43,9 km/h (6 Bft)
01.04.2015 04:22 4,8 C 2,8 C 77 % 1011,6 hPa 0,0 l/m 0 min 0 min 0 W/m 52,3 km/h (7 Bft)
01.04.2015 04:24 4,8 C 2,2 C 77 % 1011,6 hPa 0,0 l/m 0 min 0 min 0 W/m 39,7 km/h (6 Bft)
01.04.2015 04:26 4,9 C 2,8 C 76 % 1011,6 hPa 0,2 l/m 0 min 0 min 0 W/m 39,7 km/h (6 Bft)
01.04.2015 04:28 4,9 C 2,2 C 76 % 1011,6 hPa 0,0 l/m 0 min 0 min 0 W/m 27,2 km/h (4 Bft)
01.04.2015 04:30 4,9 C 2,2 C 76 % 1011,7 hPa 0,0 l/m 0 min 0 min 0 W/m 48,1 km/h (6 Bft)
01.04.2015 04:32 4,9 C 2,8 C 76 % 1011,7 hPa 0,0 l/m 0 min 0 min 0 W/m 43,9 km/h (6 Bft)
01.04.2015 04:34 4,9 C 2,8 C 76 % 1011,6 hPa 0,0 l/m 0 min 0 min 0 W/m 37,7 km/h (5 Bft)
01.04.2015 04:36 4,9 C 2,8 C 76 % 1011,7 hPa 0,0 l/m 0 min 0 min 0 W/m 29,3 km/h (5 Bft)
01.04.2015 04:38 4,9 C 2,2 C 76 % 1011,7 hPa 0,0 l/m 0 min 0 min 0 W/m 31,4 km/h (5 Bft)
01.04.2015 04:40 4,9 C 2,8 C 76 % 1011,7 hPa 0,0 l/m 0 min 0 min 0 W/m 39,7 km/h (6 Bft)
01.04.2015 04:42 4,9 C 2,2 C 76 % 1011,8 hPa 0,2 l/m 0 min 0 min 0 W/m 35,6 km/h (5 Bft)
01.04.2015 04:44 4,9 C 2,8 C 76 % 1011,9 hPa 0,0 l/m 0 min 0 min 0 W/m 37,7 km/h (5 Bft)
01.04.2015 04:46 4,9 C 2,8 C 76 % 1011,9 hPa 0,0 l/m 0 min 0 min 0 W/m 37,7 km/h (5 Bft)
01.04.2015 04:48 4,9 C 2,8 C 76 % 1011,9 hPa 0,0 l/m 0 min 0 min 0 W/m 33,5 km/h (5 Bft)
01.04.2015 04:50 4,9 C 2,8 C 76 % 1011,9 hPa 0,0 l/m 0 min 0 min 0 W/m 37,7 km/h (5 Bft)
01.04.2015 04:52 4,9 C 2,8 C 76 % 1011,9 hPa 0,0 l/m 0 min 0 min 0 W/m 43,9 km/h (6 Bft)
01.04.2015 04:54 4,9 C 2,8 C 76 % 1012,1 hPa 0,0 l/m 0 min 2 min 0 W/m 35,6 km/h (5 Bft)
01.04.2015 04:56 4,8 C 2,8 C 76 % 1012,1 hPa 0,0 l/m 0 min 0 min 0 W/m 39,7 km/h (6 Bft)
01.04.2015 04:58 4,8 C 2,8 C 76 % 1012,1 hPa 0,0 l/m 0 min 0 min 0 W/m 37,7 km/h (5 Bft)
01.04.2015 05:00 4,8 C 2,8 C 76 % 1012,1 hPa 0,0 l/m 0 min 0 min 0 W/m 37,7 km/h (5 Bft)
01.04.2015 05:02 4,8 C 2,8 C 76 % 1012,1 hPa 0,0 l/m 0 min 0 min 0 W/m 39,7 km/h (6 Bft)
01.04.2015 05:04 4,8 C 2,8 C 77 % 1012,2 hPa 0,0 l/m 0 min 2 min 0 W/m 35,6 km/h (5 Bft)
01.04.2015 05:06 4,8 C 2,8 C 77 % 1012,2 hPa 0,0 l/m 0 min 2 min 0 W/m 35,6 km/h (5 Bft)
01.04.2015 05:08 4,8 C 2,8 C 77 % 1012,5 hPa 0,2 l/m 0 min 2 min 0 W/m 29,3 km/h (5 Bft)
01.04.2015 05:10 4,8 C 2,8 C 77 % 1012,3 hPa 0,0 l/m 0 min 0 min 0 W/m 35,6 km/h (5 Bft)
01.04.2015 05:12 4,8 C 2,8 C 77 % 1012,2 hPa 0,0 l/m 0 min 0 min 0 W/m 41,8 km/h (6 Bft)
01.04.2015 05:14 4,8 C 2,8 C 77 % 1012,2 hPa 0,0 l/m 0 min 0 min 0 W/m 27,2 km/h (4 Bft)
01.04.2015 05:16 4,7 C 2,8 C 77 % 1012,3 hPa 0,0 l/m 0 min 0 min 0 W/m 39,7 km/h (6 Bft)
01.04.2015 05:18 4,7 C 2,8 C 77 % 1012,3 hPa 0,0 l/m 0 min 0 min 0 W/m 39,7 km/h (6 Bft)
01.04.2015 05:20 4,7 C 2,8 C 77 % 1012,2 hPa 0,0 l/m 0 min 0 min 0 W/m 37,7 km/h (5 Bft)
01.04.2015 05:22 4,7 C 2,8 C 77 % 1012,3 hPa 0,0 l/m 0 min 0 min 0 W/m 37,7 km/h (5 Bft)
01.04.2015 05:24 4,7 C 2,8 C 77 % 1012,3 hPa 0,0 l/m 0 min 2 min 0 W/m 35,6 km/h (5 Bft)
01.04.2015 05:26 4,7 C 2,8 C 77 % 1012,4 hPa 0,0 l/m 0 min 2 min 0 W/m 39,7 km/h (6 Bft)
01.04.2015 05:28 4,7 C 2,8 C 77 % 1012,3 hPa 0,2 l/m 0 min 2 min 0 W/m 33,5 km/h (5 Bft)
01.04.2015 05:30 4,7 C 2,8 C 77 % 1012,3 hPa 0,0 l/m 0 min 0 min 0 W/m 33,5 km/h (5 Bft)
01.04.2015 05:32 4,7 C 2,8 C 77 % 1012,3 hPa 0,0 l/m 0 min 0 min 0 W/m 37,7 km/h (5 Bft)
01.04.2015 05:34 4,7 C 2,8 C 77 % 1012,4 hPa 0,0 l/m 0 min 0 min 0 W/m 33,5 km/h (5 Bft)
01.04.2015 05:36 4,7 C 2,8 C 77 % 1012,4 hPa 0,0 l/m 0 min 0 min 0 W/m 33,5 km/h (5 Bft)
01.04.2015 05:38 4,7 C 2,8 C 76 % 1012,5 hPa 0,0 l/m 0 min 0 min 0 W/m 29,3 km/h (5 Bft)
01.04.2015 05:40 4,7 C 2,8 C 76 % 1012,5 hPa 0,0 l/m 0 min 0 min 0 W/m 43,9 km/h (6 Bft)
01.04.2015 05:42 4,7 C 2,8 C 76 % 1012,5 hPa 0,0 l/m 0 min 0 min 0 W/m 41,8 km/h (6 Bft)
01.04.2015 05:44 4,7 C 2,8 C 76 % 1012,5 hPa 0,0 l/m 0 min 0 min 0 W/m 29,3 km/h (5 Bft)
01.04.2015 05:46 4,6 C 2,8 C 76 % 1012,5 hPa 0,0 l/m 0 min 0 min 0 W/m 27,2 km/h (4 Bft)
01.04.2015 05:48 4,6 C 2,8 C 76 % 1012,5 hPa 0,0 l/m 0 min 0 min 0 W/m 25,1 km/h (4 Bft)
01.04.2015 05:50 4,6 C 2,2 C 76 % 1012,5 hPa 0,0 l/m 0 min 0 min 0 W/m 27,2 km/h (4 Bft)
01.04.2015 05:52 4,6 C 2,2 C 76 % 1012,6 hPa 0,0 l/m 0 min 0 min 0 W/m 35,6 km/h (5 Bft)
01.04.2015 05:54 4,5 C 2,2 C 76 % 1012,5 hPa 0,0 l/m 0 min 0 min 0 W/m 29,3 km/h (5 Bft)
01.04.2015 05:56 4,5 C 2,8 C 76 % 1012,7 hPa 0,0 l/m 0 min 0 min 0 W/m 31,4 km/h (5 Bft)
01.04.2015 05:58 4,5 C 2,8 C 76 % 1012,6 hPa 0,0 l/m 0 min 0 min 0 W/m 23,0 km/h (4 Bft)
01.04.2015 06:00 4,5 C 2,2 C 76 % 1012,6 hPa 0,0 l/m 0 min 0 min 0 W/m 27,2 km/h (4 Bft)
01.04.2015 06:02 4,5 C 2,2 C 76 % 1012,7 hPa 0,2 l/m 0 min 0 min 0 W/m 33,5 km/h (5 Bft)
01.04.2015 06:06 4,4 C 2,8 C 77 % 1012,7 hPa 0,0 l/m 0 min 0 min 0 W/m 43,9 km/h (6 Bft)
01.04.2015 06:08 4,4 C 2,8 C 77 % 1012,6 hPa 0,0 l/m 0 min 0 min 0 W/m 41,8 km/h (6 Bft)
01.04.2015 06:10 4,4 C 2,8 C 77 % 1012,7 hPa 0,0 l/m 0 min 0 min 0 W/m 56,5 km/h (7 Bft)
01.04.2015 06:12 4,4 C 2,8 C 78 % 1012,7 hPa 0,0 l/m 0 min 0 min 0 W/m 31,4 km/h (5 Bft)
01.04.2015 06:14 4,4 C 2,8 C 78 % 1012,7 hPa 0,0 l/m 0 min 0 min 0 W/m 41,8 km/h (6 Bft)
01.04.2015 06:16 4,4 C 2,8 C 78 % 1012,8 hPa 0,0 l/m 0 min 0 min 0 W/m 33,5 km/h (5 Bft)
01.04.2015 06:18 4,3 C 2,8 C 78 % 1012,9 hPa 0,0 l/m 0 min 0 min 0 W/m 31,4 km/h (5 Bft)
01.04.2015 06:20 4,3 C 2,8 C 79 % 1012,9 hPa 0,0 l/m 0 min 0 min 0 W/m 37,7 km/h (5 Bft)
01.04.2015 06:22 4,3 C 2,8 C 79 % 1012,9 hPa 0,0 l/m 0 min 0 min 0 W/m 33,5 km/h (5 Bft)
01.04.2015 06:24 4,3 C 2,8 C 79 % 1012,9 hPa 0,0 l/m 0 min 0 min 0 W/m 37,7 km/h (5 Bft)
01.04.2015 06:26 4,3 C 2,8 C 79 % 1012,9 hPa 0,0 l/m 0 min 0 min 0 W/m 41,8 km/h (6 Bft)
01.04.2015 06:28 4,2 C 2,8 C 80 % 1012,9 hPa 0,0 l/m 0 min 0 min 0 W/m 35,6 km/h (5 Bft)
01.04.2015 06:30 4,2 C 2,8 C 80 % 1012,9 hPa 0,2 l/m 0 min 0 min 0 W/m 50,2 km/h (7 Bft)
01.04.2015 06:32 4,2 C 2,8 C 80 % 1012,9 hPa 0,0 l/m 0 min 0 min 0 W/m 43,9 km/h (6 Bft)
01.04.2015 06:34 4,2 C 2,8 C 80 % 1013,0 hPa 0,0 l/m 0 min 0 min 0 W/m 29,3 km/h (5 Bft)
01.04.2015 06:36 4,2 C 2,8 C 80 % 1013,1 hPa 0,0 l/m 0 min 0 min 0 W/m 31,4 km/h (5 Bft)
01.04.2015 06:38 4,2 C 2,8 C 80 % 1013,1 hPa 0,0 l/m 0 min 0 min 0 W/m 39,7 km/h (6 Bft)
01.04.2015 06:40 4,2 C 2,8 C 80 % 1013,2 hPa 0,0 l/m 0 min 0 min 0 W/m 29,3 km/h (5 Bft)
01.04.2015 06:42 4,2 C 2,8 C 80 % 1013,2 hPa 0,0 l/m 0 min 0 min 0 W/m 31,4 km/h (5 Bft)
01.04.2015 06:44 4,2 C 2,8 C 81 % 1013,3 hPa 0,0 l/m 0 min 0 min 0 W/m 31,4 km/h (5 Bft)
01.04.2015 06:46 4,2 C 2,8 C 81 % 1013,3 hPa 0,0 l/m 0 min 0 min 0 W/m 31,4 km/h (5 Bft)
01.04.2015 06:48 4,2 C 2,8 C 81 % 1013,3 hPa 0,0 l/m 0 min 0 min 0 W/m 31,4 km/h (5 Bft)
01.04.2015 06:50 4,2 C 2,8 C 81 % 1013,2 hPa 0,0 l/m 0 min 0 min 0 W/m 29,3 km/h (5 Bft)
01.04.2015 06:52 4,2 C 2,8 C 81 % 1013,3 hPa 0,0 l/m 0 min 0 min 0 W/m 41,8 km/h (6 Bft)
01.04.2015 06:54 4,2 C 2,8 C 80 % 1013,3 hPa 0,0 l/m 0 min 0 min 0 W/m 41,8 km/h (6 Bft)
01.04.2015 06:56 4,2 C 2,8 C 80 % 1013,3 hPa 0,0 l/m 0 min 0 min 0 W/m 29,3 km/h (5 Bft)
01.04.2015 06:58 4,3 C 2,8 C 80 % 1013,3 hPa 0,0 l/m 0 min 0 min 0 W/m 27,2 km/h (4 Bft)
01.04.2015 07:00 4,3 C 2,8 C 80 % 1013,4 hPa 0,0 l/m 0 min 0 min 0 W/m 27,2 km/h (4 Bft)
01.04.2015 07:02 4,3 C 2,8 C 80 % 1013,4 hPa 0,0 l/m 0 min 0 min 0 W/m 29,3 km/h (5 Bft)
01.04.2015 07:04 4,3 C 2,8 C 80 % 1013,4 hPa 0,0 l/m 0 min 0 min 0 W/m 29,3 km/h (5 Bft)
01.04.2015 07:06 4,3 C 2,8 C 80 % 1013,4 hPa 0,0 l/m 0 min 0 min 0 W/m 20,9 km/h (4 Bft)
01.04.2015 07:08 4,3 C 2,8 C 80 % 1013,5 hPa 0,0 l/m 0 min 0 min 0 W/m 20,9 km/h (4 Bft)
01.04.2015 07:10 4,3 C 2,8 C 80 % 1013,4 hPa 0,2 l/m 0 min 0 min 0 W/m 37,7 km/h (5 Bft)
01.04.2015 07:12 4,3 C 2,8 C 80 % 1013,4 hPa 0,0 l/m 0 min 0 min 5 W/m 31,4 km/h (5 Bft)
01.04.2015 07:14 4,3 C 2,8 C 80 % 1013,5 hPa 0,0 l/m 0 min 0 min 5 W/m 25,1 km/h (4 Bft)
01.04.2015 07:16 4,3 C 2,8 C 80 % 1013,6 hPa 0,0 l/m 0 min 0 min 5 W/m 33,5 km/h (5 Bft)
01.04.2015 07:18 4,4 C 2,8 C 80 % 1013,5 hPa 0,0 l/m 0 min 0 min 5 W/m 29,3 km/h (5 Bft)
01.04.2015 07:20 4,4 C 2,8 C 80 % 1013,7 hPa 0,0 l/m 0 min 0 min 5 W/m 27,2 km/h (4 Bft)
01.04.2015 07:22 4,4 C 2,8 C 80 % 1013,7 hPa 0,0 l/m 0 min 0 min 6 W/m 23,0 km/h (4 Bft)
01.04.2015 07:24 4,4 C 2,8 C 80 % 1013,7 hPa 0,0 l/m 0 min 0 min 7 W/m 25,1 km/h (4 Bft)
01.04.2015 07:26 4,4 C 3,3 C 80 % 1013,8 hPa 0,0 l/m 0 min 0 min 5 W/m 33,5 km/h (5 Bft)
01.04.2015 07:28 4,4 C 3,3 C 80 % 1013,8 hPa 0,0 l/m 0 min 0 min 6 W/m 43,9 km/h (6 Bft)
01.04.2015 07:30 4,4 C 3,3 C 80 % 1013,8 hPa 0,0 l/m 0 min 0 min 7 W/m 33,5 km/h (5 Bft)
01.04.2015 07:32 4,4 C 3,3 C 80 % 1013,9 hPa 0,0 l/m 0 min 0 min 7 W/m 35,6 km/h (5 Bft)
01.04.2015 07:34 4,4 C 3,3 C 80 % 1013,9 hPa 0,0 l/m 0 min 0 min 7 W/m 37,7 km/h (5 Bft)
01.04.2015 07:36 4,5 C 3,3 C 80 % 1014,0 hPa 0,0 l/m 0 min 0 min 7 W/m 41,8 km/h (6 Bft)
01.04.2015 07:38 4,5 C 3,3 C 79 % 1013,9 hPa 0,0 l/m 0 min 0 min 7 W/m 35,6 km/h (5 Bft)
01.04.2015 07:40 4,6 C 3,3 C 79 % 1014,1 hPa 0,0 l/m 0 min 0 min 8 W/m 35,6 km/h (5 Bft)
01.04.2015 07:42 4,6 C 3,3 C 79 % 1014,1 hPa 0,0 l/m 0 min 0 min 9 W/m 23,0 km/h (4 Bft)
01.04.2015 07:44 4,6 C 3,3 C 79 % 1014,2 hPa 0,0 l/m 0 min 0 min 8 W/m 33,5 km/h (5 Bft)
01.04.2015 07:46 4,6 C 3,3 C 79 % 1014,2 hPa 0,2 l/m 0 min 0 min 11 W/m 31,4 km/h (5 Bft)
01.04.2015 07:48 4,6 C 3,3 C 79 % 1014,3 hPa 0,0 l/m 0 min 0 min 12 W/m 35,6 km/h (5 Bft)
01.04.2015 07:50 4,6 C 3,3 C 79 % 1014,3 hPa 0,0 l/m 0 min 0 min 12 W/m 33,5 km/h (5 Bft)
01.04.2015 07:52 4,6 C 3,3 C 79 % 1014,5 hPa 0,0 l/m 0 min 0 min 12 W/m 35,6 km/h (5 Bft)
01.04.2015 07:54 4,6 C 3,3 C 79 % 1014,5 hPa 0,0 l/m 0 min 0 min 13 W/m 31,4 km/h (5 Bft)
01.04.2015 07:56 4,6 C 3,3 C 79 % 1014,5 hPa 0,0 l/m 0 min 0 min 16 W/m 41,8 km/h (6 Bft)
01.04.2015 07:58 4,6 C 3,3 C 79 % 1014,5 hPa 0,0 l/m 0 min 0 min 16 W/m 27,2 km/h (4 Bft)
01.04.2015 08:00 4,6 C 3,3 C 79 % 1014,6 hPa 0,0 l/m 0 min 0 min 22 W/m 25,1 km/h (4 Bft)
01.04.2015 08:02 4,6 C 3,3 C 79 % 1014,6 hPa 0,0 l/m 0 min 0 min 30 W/m 33,5 km/h (5 Bft)
01.04.2015 08:04 4,7 C 3,3 C 79 % 1014,6 hPa 0,0 l/m 0 min 2 min 25 W/m 39,7 km/h (6 Bft)
01.04.2015 08:06 4,7 C 3,3 C 79 % 1014,6 hPa 0,0 l/m 0 min 0 min 17 W/m 25,1 km/h (4 Bft)
01.04.2015 08:08 4,7 C 3,3 C 79 % 1014,7 hPa 0,0 l/m 0 min 0 min 18 W/m 31,4 km/h (5 Bft)
01.04.2015 08:10 4,7 C 3,3 C 79 % 1014,7 hPa 0,0 l/m 0 min 0 min 27 W/m 33,5 km/h (5 Bft)
01.04.2015 08:12 4,7 C 3,3 C 79 % 1014,8 hPa 0,0 l/m 0 min 0 min 28 W/m 27,2 km/h (4 Bft)
01.04.2015 08:14 4,7 C 3,3 C 79 % 1014,8 hPa 0,0 l/m 0 min 2 min 27 W/m 33,5 km/h (5 Bft)
01.04.2015 08:16 4,7 C 3,3 C 79 % 1015,0 hPa 0,0 l/m 0 min 2 min 17 W/m 33,5 km/h (5 Bft)
01.04.2015 08:18 4,7 C 3,3 C 79 % 1015,1 hPa 0,0 l/m 0 min 2 min 13 W/m 39,7 km/h (6 Bft)
01.04.2015 08:20 4,7 C 3,3 C 79 % 1015,2 hPa 0,0 l/m 0 min 2 min 14 W/m 31,4 km/h (5 Bft)
01.04.2015 08:22 4,8 C 3,3 C 79 % 1015,2 hPa 0,0 l/m 0 min 2 min 21 W/m 29,3 km/h (5 Bft)
01.04.2015 08:24 4,8 C 3,3 C 79 % 1015,3 hPa 0,0 l/m 0 min 2 min 19 W/m 23,0 km/h (4 Bft)
01.04.2015 08:26 4,8 C 3,3 C 79 % 1015,4 hPa 0,0 l/m 0 min 2 min 27 W/m 39,7 km/h (6 Bft)
01.04.2015 08:28 4,7 C 2,8 C 80 % 1015,5 hPa 0,0 l/m 0 min 2 min 26 W/m 39,7 km/h (6 Bft)
01.04.2015 08:30 4,7 C 2,2 C 81 % 1015,5 hPa 0,0 l/m 0 min 2 min 23 W/m 39,7 km/h (6 Bft)
01.04.2015 08:32 4,7 C 2,2 C 81 % 1015,6 hPa 0,2 l/m 0 min 2 min 31 W/m 33,5 km/h (5 Bft)
01.04.2015 08:34 4,7 C 2,2 C 82 % 1015,6 hPa 0,0 l/m 0 min 2 min 37 W/m 29,3 km/h (5 Bft)
01.04.2015 08:36 4,6 C 2,2 C 83 % 1015,7 hPa 0,0 l/m 0 min 2 min 26 W/m 31,4 km/h (5 Bft)
01.04.2015 08:38 4,6 C 2,2 C 83 % 1015,7 hPa 0,0 l/m 0 min 2 min 31 W/m 27,2 km/h (4 Bft)
01.04.2015 08:40 4,5 C 2,2 C 83 % 1015,7 hPa 0,0 l/m 0 min 2 min 33 W/m 20,9 km/h (4 Bft)
01.04.2015 08:42 4,4 C 2,2 C 84 % 1015,7 hPa 0,0 l/m 0 min 2 min 28 W/m 25,1 km/h (4 Bft)
01.04.2015 08:44 4,4 C 2,2 C 84 % 1015,7 hPa 0,0 l/m 0 min 0 min 42 W/m 14,6 km/h (3 Bft)
01.04.2015 08:46 4,3 C 2,2 C 85 % 1015,9 hPa 0,0 l/m 0 min 2 min 46 W/m 29,3 km/h (5 Bft)
01.04.2015 08:48 4,2 C 2,2 C 85 % 1015,9 hPa 0,2 l/m 0 min 2 min 45 W/m 25,1 km/h (4 Bft)
01.04.2015 08:50 4,2 C 2,2 C 85 % 1016,1 hPa 0,0 l/m 0 min 2 min 29 W/m 25,1 km/h (4 Bft)
01.04.2015 08:52 4,1 C 2,2 C 86 % 1016,1 hPa 0,0 l/m 0 min 2 min 34 W/m 25,1 km/h (4 Bft)
01.04.2015 08:54 4,1 C 2,2 C 86 % 1016,1 hPa 0,0 l/m 0 min 2 min 49 W/m 20,9 km/h (4 Bft)
01.04.2015 08:56 4,0 C 2,2 C 87 % 1016,0 hPa 0,0 l/m 0 min 2 min 54 W/m 20,9 km/h (4 Bft)
01.04.2015 08:58 3,9 C 2,2 C 87 % 1016,1 hPa 0,0 l/m 0 min 2 min 46 W/m 23,0 km/h (4 Bft)
01.04.2015 09:00 3,9 C 2,2 C 87 % 1016,2 hPa 0,0 l/m 0 min 0 min 22 W/m 29,3 km/h (5 Bft)
01.04.2015 09:02 3,8 C 2,2 C 87 % 1016,3 hPa 0,0 l/m 0 min 2 min 21 W/m 29,3 km/h (5 Bft)
01.04.2015 09:04 3,8 C 1,7 C 88 % 1016,2 hPa 0,2 l/m 0 min 2 min 29 W/m 27,2 km/h (4 Bft)
01.04.2015 09:06 3,7 C 1,7 C 88 % 1016,3 hPa 0,0 l/m 0 min 2 min 42 W/m 29,3 km/h (5 Bft)
01.04.2015 09:08 3,7 C 2,2 C 88 % 1016,2 hPa 0,0 l/m 0 min 2 min 52 W/m 29,3 km/h (5 Bft)
01.04.2015 09:10 3,7 C 2,2 C 88 % 1016,3 hPa 0,0 l/m 0 min 2 min 49 W/m 29,3 km/h (5 Bft)
01.04.2015 09:12 3,6 C 2,2 C 88 % 1016,3 hPa 0,0 l/m 0 min 2 min 58 W/m 33,5 km/h (5 Bft)
01.04.2015 09:14 3,6 C 2,2 C 89 % 1016,3 hPa 0,2 l/m 0 min 2 min 92 W/m 33,5 km/h (5 Bft)
01.04.2015 09:16 3,6 C 1,7 C 89 % 1016,3 hPa 0,0 l/m 0 min 2 min 63 W/m 27,2 km/h (4 Bft)
01.04.2015 09:18 3,5 C 1,7 C 89 % 1016,3 hPa 0,0 l/m 0 min 2 min 50 W/m 29,3 km/h (5 Bft)
01.04.2015 09:20 3,4 C 1,7 C 89 % 1016,2 hPa 0,0 l/m 0 min 2 min 71 W/m 27,2 km/h (4 Bft)
01.04.2015 09:22 3,4 C 1,7 C 89 % 1016,3 hPa 0,0 l/m 0 min 2 min 110 W/m 25,1 km/h (4 Bft)
01.04.2015 09:24 3,4 C 2,2 C 90 % 1016,2 hPa 0,0 l/m 0 min 0 min 133 W/m 20,9 km/h (4 Bft)
01.04.2015 09:26 3,4 C 2,2 C 90 % 1016,2 hPa 0,0 l/m 0 min 2 min 144 W/m 16,7 km/h (3 Bft)
01.04.2015 09:28 3,4 C 2,2 C 90 % 1016,2 hPa 0,0 l/m 2 min 0 min 189 W/m 18,8 km/h (3 Bft)
01.04.2015 09:30 3,4 C 2,2 C 90 % 1016,2 hPa 0,0 l/m 2 min 0 min 212 W/m 23,0 km/h (4 Bft)
01.04.2015 09:32 3,4 C 2,2 C 91 % 1016,3 hPa 0,0 l/m 0 min 0 min 111 W/m 27,2 km/h (4 Bft)
01.04.2015 09:34 3,4 C 2,2 C 91 % 1016,3 hPa 0,0 l/m 0 min 0 min 89 W/m 14,6 km/h (3 Bft)
01.04.2015 09:36 3,4 C 2,2 C 91 % 1016,5 hPa 0,0 l/m 0 min 0 min 61 W/m 16,7 km/h (3 Bft)
01.04.2015 09:38 3,5 C 2,2 C 91 % 1016,5 hPa 0,0 l/m 0 min 2 min 66 W/m 31,4 km/h (5 Bft)
01.04.2015 09:40 3,5 C 2,2 C 91 % 1016,6 hPa 0,0 l/m 0 min 2 min 54 W/m 20,9 km/h (4 Bft)
01.04.2015 09:42 3,5 C 2,2 C 91 % 1016,6 hPa 0,0 l/m 0 min 2 min 66 W/m 20,9 km/h (4 Bft)
01.04.2015 09:44 3,5 C 2,2 C 91 % 1016,6 hPa 0,0 l/m 0 min 2 min 94 W/m 35,6 km/h (5 Bft)
01.04.2015 09:46 3,6 C 2,2 C 92 % 1016,7 hPa 0,0 l/m 0 min 2 min 85 W/m 33,5 km/h (5 Bft)
01.04.2015 09:48 3,6 C 2,2 C 92 % 1016,7 hPa 0,0 l/m 0 min 2 min 78 W/m 31,4 km/h (5 Bft)
01.04.2015 09:50 3,6 C 2,2 C 92 % 1016,7 hPa 0,0 l/m 0 min 2 min 66 W/m 23,0 km/h (4 Bft)
01.04.2015 09:52 3,6 C 2,2 C 92 % 1016,8 hPa 0,0 l/m 0 min 2 min 115 W/m 25,1 km/h (4 Bft)
01.04.2015 09:54 3,6 C 2,8 C 92 % 1016,8 hPa 0,0 l/m 2 min 2 min 230 W/m 33,5 km/h (5 Bft)
01.04.2015 09:56 3,6 C 2,8 C 92 % 1016,6 hPa 0,0 l/m 0 min 2 min 184 W/m 27,2 km/h (4 Bft)
01.04.2015 09:58 3,6 C 2,2 C 92 % 1016,6 hPa 0,0 l/m 2 min 2 min 231 W/m 25,1 km/h (4 Bft)
01.04.2015 10:00 3,6 C 2,2 C 92 % 1016,7 hPa 0,0 l/m 2 min 0 min 347 W/m 23,0 km/h (4 Bft)
01.04.2015 10:02 3,7 C 2,8 C 92 % 1016,7 hPa 0,0 l/m 2 min 0 min 415 W/m 20,9 km/h (4 Bft)
01.04.2015 10:04 3,8 C 2,8 C 92 % 1016,7 hPa 0,0 l/m 2 min 0 min 414 W/m 27,2 km/h (4 Bft)
01.04.2015 10:06 3,9 C 2,8 C 92 % 1016,7 hPa 0,0 l/m 2 min 0 min 421 W/m 25,1 km/h (4 Bft)
01.04.2015 10:08 3,9 C 2,8 C 92 % 1016,7 hPa 0,0 l/m 2 min 0 min 431 W/m 20,9 km/h (4 Bft)
01.04.2015 10:10 4,1 C 2,8 C 93 % 1016,8 hPa 0,0 l/m 2 min 0 min 436 W/m 18,8 km/h (3 Bft)
01.04.2015 10:12 4,2 C 2,8 C 93 % 1016,9 hPa 0,0 l/m 2 min 0 min 472 W/m 29,3 km/h (5 Bft)
01.04.2015 10:14 4,3 C 3,3 C 93 % 1016,8 hPa 0,0 l/m 2 min 0 min 557 W/m 25,1 km/h (4 Bft)
01.04.2015 10:16 4,4 C 3,9 C 93 % 1016,8 hPa 0,0 l/m 2 min 0 min 639 W/m 25,1 km/h (4 Bft)
01.04.2015 10:18 4,6 C 3,9 C 93 % 1016,8 hPa 0,0 l/m 0 min 0 min 224 W/m 31,4 km/h (5 Bft)
01.04.2015 10:20 4,6 C 3,9 C 93 % 1016,9 hPa 0,0 l/m 0 min 0 min 215 W/m 25,1 km/h (4 Bft)
01.04.2015 10:22 4,6 C 3,3 C 93 % 1016,9 hPa 0,0 l/m 0 min 0 min 206 W/m 27,2 km/h (4 Bft)
01.04.2015 10:24 4,7 C 3,3 C 92 % 1016,9 hPa 0,0 l/m 0 min 0 min 148 W/m 18,8 km/h (3 Bft)
01.04.2015 10:26 4,7 C 3,3 C 92 % 1016,9 hPa 0,0 l/m 0 min 0 min 131 W/m 25,1 km/h (4 Bft)
01.04.2015 10:28 4,7 C 3,3 C 92 % 1016,9 hPa 0,0 l/m 0 min 0 min 181 W/m 23,0 km/h (4 Bft)
01.04.2015 10:30 4,7 C 3,3 C 92 % 1017,0 hPa 0,0 l/m 0 min 0 min 181 W/m 27,2 km/h (4 Bft)
01.04.2015 10:32 4,7 C 3,3 C 92 % 1017,1 hPa 0,0 l/m 0 min 0 min 216 W/m 25,1 km/h (4 Bft)
01.04.2015 10:34 4,8 C 3,3 C 92 % 1017,0 hPa 0,0 l/m 0 min 0 min 194 W/m 27,2 km/h (4 Bft)
01.04.2015 10:36 4,8 C 3,3 C 91 % 1016,9 hPa 0,0 l/m 2 min 0 min 256 W/m 16,7 km/h (3 Bft)
01.04.2015 10:38 4,8 C 3,9 C 91 % 1017,0 hPa 0,0 l/m 2 min 0 min 279 W/m 31,4 km/h (5 Bft)
01.04.2015 10:40 4,8 C 3,3 C 91 % 1017,1 hPa 0,0 l/m 2 min 0 min 251 W/m 23,0 km/h (4 Bft)
01.04.2015 10:42 4,8 C 3,3 C 91 % 1016,9 hPa 0,0 l/m 2 min 0 min 266 W/m 29,3 km/h (5 Bft)
01.04.2015 10:44 4,9 C 3,9 C 91 % 1017,0 hPa 0,0 l/m 2 min 0 min 287 W/m 20,9 km/h (4 Bft)
01.04.2015 10:46 4,9 C 3,9 C 90 % 1017,1 hPa 0,0 l/m 0 min 0 min 229 W/m 33,5 km/h (5 Bft)
01.04.2015 10:48 4,9 C 3,3 C 90 % 1017,1 hPa 0,0 l/m 0 min 2 min 210 W/m 37,7 km/h (5 Bft)
01.04.2015 10:50 4,9 C 3,3 C 90 % 1017,1 hPa 0,0 l/m 0 min 0 min 197 W/m 29,3 km/h (5 Bft)
01.04.2015 10:52 4,9 C 3,3 C 90 % 1017,1 hPa 0,0 l/m 0 min 0 min 169 W/m 37,7 km/h (5 Bft)
01.04.2015 10:54 4,8 C 3,3 C 89 % 1017,1 hPa 0,0 l/m 0 min 0 min 139 W/m 23,0 km/h (4 Bft)
01.04.2015 10:56 4,8 C 3,3 C 89 % 1017,2 hPa 0,0 l/m 0 min 0 min 132 W/m 29,3 km/h (5 Bft)
01.04.2015 10:58 4,8 C 3,3 C 89 % 1017,3 hPa 0,0 l/m 0 min 2 min 177 W/m 31,4 km/h (5 Bft)
01.04.2015 11:00 4,8 C 3,3 C 89 % 1017,4 hPa 0,0 l/m 0 min 2 min 217 W/m 29,3 km/h (5 Bft)
01.04.2015 11:02 4,8 C 3,3 C 89 % 1017,3 hPa 0,0 l/m 0 min 2 min 174 W/m 35,6 km/h (5 Bft)
01.04.2015 11:04 4,8 C 3,3 C 89 % 1017,3 hPa 0,0 l/m 2 min 0 min 285 W/m 29,3 km/h (5 Bft)
01.04.2015 11:06 4,9 C 3,9 C 89 % 1017,4 hPa 0,0 l/m 2 min 0 min 683 W/m 20,9 km/h (4 Bft)
01.04.2015 11:08 4,9 C 4,4 C 89 % 1017,4 hPa 0,0 l/m 2 min 0 min 630 W/m 35,6 km/h (5 Bft)
01.04.2015 11:10 5,1 C 4,4 C 90 % 1017,3 hPa 0,0 l/m 2 min 0 min 661 W/m 29,3 km/h (5 Bft)
01.04.2015 11:12 5,2 C 4,4 C 90 % 1017,4 hPa 0,0 l/m 2 min 0 min 661 W/m 23,0 km/h (4 Bft)
01.04.2015 11:14 5,2 C 4,4 C 90 % 1017,6 hPa 0,0 l/m 2 min 0 min 378 W/m 35,6 km/h (5 Bft)
01.04.2015 11:16 5,2 C 3,3 C 89 % 1017,5 hPa 0,0 l/m 2 min 0 min 299 W/m 31,4 km/h (5 Bft)
01.04.2015 11:18 5,2 C 3,9 C 89 % 1017,5 hPa 0,0 l/m 0 min 0 min 179 W/m 31,4 km/h (5 Bft)
01.04.2015 11:20 5,2 C 3,9 C 89 % 1017,6 hPa 0,0 l/m 2 min 0 min 446 W/m 29,3 km/h (5 Bft)
01.04.2015 11:22 5,2 C 4,4 C 89 % 1017,5 hPa 0,0 l/m 2 min 0 min 768 W/m 31,4 km/h (5 Bft)
01.04.2015 11:24 5,3 C 4,4 C 89 % 1017,5 hPa 0,0 l/m 2 min 0 min 494 W/m 27,2 km/h (4 Bft)
01.04.2015 11:26 5,4 C 3,9 C 89 % 1017,6 hPa 0,0 l/m 2 min 0 min 371 W/m 35,6 km/h (5 Bft)
01.04.2015 11:28 5,4 C 3,9 C 89 % 1017,5 hPa 0,0 l/m 2 min 0 min 511 W/m 43,9 km/h (6 Bft)
01.04.2015 11:30 5,5 C 4,4 C 88 % 1017,6 hPa 0,0 l/m 2 min 0 min 508 W/m 23,0 km/h (4 Bft)
01.04.2015 11:32 5,6 C 4,4 C 88 % 1017,5 hPa 0,0 l/m 2 min 0 min 455 W/m 31,4 km/h (5 Bft)
01.04.2015 11:34 5,7 C 4,4 C 89 % 1017,6 hPa 0,0 l/m 2 min 0 min 301 W/m 37,7 km/h (5 Bft)
01.04.2015 11:36 5,7 C 4,4 C 88 % 1017,6 hPa 0,0 l/m 2 min 0 min 562 W/m 43,9 km/h (6 Bft)
01.04.2015 11:38 5,7 C 3,9 C 88 % 1017,6 hPa 0,0 l/m 2 min 0 min 684 W/m 37,7 km/h (5 Bft)
01.04.2015 11:40 5,7 C 4,4 C 87 % 1017,6 hPa 0,0 l/m 2 min 0 min 671 W/m 37,7 km/h (5 Bft)
01.04.2015 11:42 5,8 C 5,0 C 87 % 1017,6 hPa 0,0 l/m 2 min 0 min 598 W/m 35,6 km/h (5 Bft)
01.04.2015 11:44 5,9 C 5,0 C 88 % 1017,6 hPa 0,0 l/m 2 min 0 min 598 W/m 27,2 km/h (4 Bft)
01.04.2015 11:46 5,9 C 5,0 C 87 % 1017,6 hPa 0,0 l/m 0 min 0 min 218 W/m 31,4 km/h (5 Bft)
01.04.2015 11:48 6,0 C 5,0 C 87 % 1017,6 hPa 0,0 l/m 0 min 0 min 218 W/m 23,0 km/h (4 Bft)
01.04.2015 11:50 6,2 C 5,6 C 87 % 1017,7 hPa 0,0 l/m 2 min 0 min 733 W/m 31,4 km/h (5 Bft)
01.04.2015 11:52 6,2 C 5,6 C 87 % 1017,7 hPa 0,0 l/m 2 min 0 min 715 W/m 23,0 km/h (4 Bft)
01.04.2015 11:54 6,2 C 5,0 C 86 % 1017,6 hPa 0,0 l/m 0 min 0 min 240 W/m 31,4 km/h (5 Bft)
01.04.2015 11:56 6,2 C 4,4 C 86 % 1017,7 hPa 0,0 l/m 0 min 0 min 158 W/m 31,4 km/h (5 Bft)
01.04.2015 11:58 6,2 C 4,4 C 85 % 1017,7 hPa 0,0 l/m 0 min 2 min 93 W/m 23,0 km/h (4 Bft)
01.04.2015 12:00 6,2 C 3,9 C 85 % 1017,8 hPa 0,0 l/m 0 min 2 min 60 W/m 31,4 km/h (5 Bft)
01.04.2015 12:02 6,1 C 3,9 C 84 % 1017,7 hPa 0,0 l/m 0 min 2 min 49 W/m 29,3 km/h (5 Bft)
01.04.2015 12:06 5,9 C 3,3 C 85 % 1017,8 hPa 0,2 l/m 0 min 2 min 49 W/m 27,2 km/h (4 Bft)
01.04.2015 12:08 5,9 C 3,3 C 85 % 1017,8 hPa 0,0 l/m 0 min 2 min 73 W/m 18,8 km/h (3 Bft)
01.04.2015 12:10 5,8 C 3,3 C 85 % 1017,8 hPa 0,0 l/m 0 min 2 min 97 W/m 20,9 km/h (4 Bft)
01.04.2015 12:12 5,8 C 3,9 C 86 % 1017,8 hPa 0,0 l/m 0 min 2 min 103 W/m 16,7 km/h (3 Bft)
01.04.2015 12:14 5,7 C 3,9 C 86 % 1017,8 hPa 0,0 l/m 0 min 0 min 130 W/m 16,7 km/h (3 Bft)
01.04.2015 12:16 5,7 C 4,4 C 86 % 1017,7 hPa 0,0 l/m 0 min 0 min 180 W/m 10,5 km/h (2 Bft)
01.04.2015 12:18 5,7 C 4,4 C 87 % 1017,7 hPa 0,0 l/m 0 min 0 min 222 W/m 18,8 km/h (3 Bft)
01.04.2015 12:20 5,6 C 4,4 C 87 % 1017,7 hPa 0,0 l/m 0 min 0 min 245 W/m 20,9 km/h (4 Bft)
01.04.2015 12:22 5,6 C 5,0 C 87 % 1017,8 hPa 0,0 l/m 0 min 0 min 289 W/m 20,9 km/h (4 Bft)
01.04.2015 12:24 5,7 C 5,6 C 88 % 1017,7 hPa 0,0 l/m 2 min 0 min 329 W/m 14,6 km/h (3 Bft)
01.04.2015 12:26 5,8 C 5,6 C 88 % 1017,7 hPa 0,0 l/m 2 min 0 min 346 W/m 12,6 km/h (3 Bft)
01.04.2015 12:28 5,8 C 5,6 C 88 % 1017,7 hPa 0,0 l/m 2 min 0 min 409 W/m 25,1 km/h (4 Bft)
01.04.2015 12:30 5,9 C 5,6 C 88 % 1017,7 hPa 0,0 l/m 2 min 0 min 418 W/m 20,9 km/h (4 Bft)
01.04.2015 12:32 6,1 C 5,6 C 89 % 1017,7 hPa 0,0 l/m 2 min 0 min 777 W/m 20,9 km/h (4 Bft)
01.04.2015 12:34 6,2 C 6,7 C 89 % 1017,7 hPa 0,0 l/m 2 min 0 min 848 W/m 16,7 km/h (3 Bft)
01.04.2015 12:36 6,4 C 7,2 C 90 % 1017,7 hPa 0,0 l/m 2 min 0 min 779 W/m 18,8 km/h (3 Bft)
01.04.2015 12:38 6,6 C 7,2 C 89 % 1017,7 hPa 0,0 l/m 2 min 0 min 526 W/m 20,9 km/h (4 Bft)
01.04.2015 12:40 6,8 C 6,7 C 89 % 1017,7 hPa 0,0 l/m 2 min 0 min 526 W/m 27,2 km/h (4 Bft)
01.04.2015 12:42 6,8 C 6,1 C 88 % 1017,5 hPa 0,0 l/m 2 min 0 min 472 W/m 33,5 km/h (5 Bft)
01.04.2015 12:44 6,9 C 6,7 C 87 % 1017,6 hPa 0,0 l/m 2 min 0 min 369 W/m 33,5 km/h (5 Bft)
01.04.2015 12:46 6,9 C 6,1 C 86 % 1017,6 hPa 0,0 l/m 2 min 0 min 352 W/m 29,3 km/h (5 Bft)
01.04.2015 12:48 6,9 C 6,1 C 85 % 1017,5 hPa 0,0 l/m 0 min 0 min 306 W/m 27,2 km/h (4 Bft)
01.04.2015 12:50 7,0 C 6,1 C 84 % 1017,5 hPa 0,0 l/m 0 min 0 min 314 W/m 23,0 km/h (4 Bft)
01.04.2015 12:52 7,0 C 6,1 C 83 % 1017,4 hPa 0,0 l/m 2 min 0 min 356 W/m 23,0 km/h (4 Bft)
01.04.2015 12:54 7,1 C 6,1 C 82 % 1017,6 hPa 0,0 l/m 0 min 0 min 211 W/m 27,2 km/h (4 Bft)
01.04.2015 12:56 7,1 C 5,6 C 82 % 1017,5 hPa 0,0 l/m 0 min 2 min 137 W/m 20,9 km/h (4 Bft)
01.04.2015 12:58 7,1 C 5,6 C 81 % 1017,5 hPa 0,0 l/m 0 min 2 min 147 W/m 27,2 km/h (4 Bft)
01.04.2015 13:00 7,0 C 5,6 C 81 % 1017,5 hPa 0,0 l/m 0 min 0 min 177 W/m 23,0 km/h (4 Bft)
01.04.2015 13:02 7,1 C 5,6 C 81 % 1017,5 hPa 0,0 l/m 0 min 0 min 235 W/m 35,6 km/h (5 Bft)
01.04.2015 13:04 7,1 C 6,1 C 82 % 1017,4 hPa 0,0 l/m 0 min 0 min 253 W/m 33,5 km/h (5 Bft)
01.04.2015 13:06 7,1 C 6,1 C 82 % 1017,5 hPa 0,0 l/m 0 min 0 min 253 W/m 23,0 km/h (4 Bft)
01.04.2015 13:08 7,2 C 6,7 C 82 % 1017,5 hPa 0,0 l/m 0 min 0 min 253 W/m 35,6 km/h (5 Bft)
01.04.2015 13:10 7,4 C 7,2 C 82 % 1017,6 hPa 0,0 l/m 2 min 0 min 466 W/m 37,7 km/h (5 Bft)
01.04.2015 13:12 7,6 C 7,2 C 80 % 1017,6 hPa 0,0 l/m 2 min 0 min 983 W/m 43,9 km/h (6 Bft)
01.04.2015 13:14 7,8 C 8,3 C 79 % 1017,5 hPa 0,0 l/m 2 min 0 min 991 W/m 37,7 km/h (5 Bft)
01.04.2015 13:16 8,1 C 7,8 C 77 % 1017,5 hPa 0,0 l/m 2 min 0 min 863 W/m 43,9 km/h (6 Bft)
01.04.2015 13:18 8,2 C 7,2 C 76 % 1017,7 hPa 0,0 l/m 2 min 0 min 421 W/m 58,6 km/h (7 Bft)
01.04.2015 13:20 8,3 C 7,2 C 74 % 1017,6 hPa 0,0 l/m 2 min 0 min 455 W/m 50,2 km/h (7 Bft)
01.04.2015 13:22 8,3 C 7,2 C 73 % 1017,5 hPa 0,0 l/m 2 min 0 min 569 W/m 43,9 km/h (6 Bft)
01.04.2015 13:24 8,4 C 7,8 C 73 % 1017,6 hPa 0,0 l/m 2 min 0 min 820 W/m 37,7 km/h (5 Bft)
01.04.2015 13:26 8,6 C 7,8 C 73 % 1017,6 hPa 0,0 l/m 2 min 0 min 873 W/m 43,9 km/h (6 Bft)
01.04.2015 13:28 8,7 C 7,8 C 72 % 1017,5 hPa 0,0 l/m 2 min 0 min 924 W/m 37,7 km/h (5 Bft)
01.04.2015 13:30 8,8 C 8,3 C 72 % 1017,5 hPa 0,0 l/m 2 min 0 min 886 W/m 33,5 km/h (5 Bft)
01.04.2015 13:32 8,9 C 8,3 C 73 % 1017,6 hPa 0,0 l/m 2 min 0 min 892 W/m 48,1 km/h (6 Bft)
01.04.2015 13:34 9,1 C 8,3 C 70 % 1017,6 hPa 0,0 l/m 2 min 0 min 870 W/m 52,3 km/h (7 Bft)
01.04.2015 13:36 9,1 C 7,8 C 68 % 1017,7 hPa 0,0 l/m 2 min 0 min 790 W/m 52,3 km/h (7 Bft)
01.04.2015 13:38 9,1 C 8,3 C 70 % 1017,6 hPa 0,0 l/m 2 min 0 min 778 W/m 33,5 km/h (5 Bft)
01.04.2015 13:40 9,2 C 8,9 C 70 % 1017,6 hPa 0,0 l/m 2 min 0 min 808 W/m 35,6 km/h (5 Bft)
01.04.2015 13:42 9,3 C 8,3 C 69 % 1017,7 hPa 0,0 l/m 2 min 0 min 790 W/m 39,7 km/h (6 Bft)
01.04.2015 13:44 9,3 C 8,3 C 68 % 1017,8 hPa 0,0 l/m 2 min 0 min 781 W/m 48,1 km/h (6 Bft)
01.04.2015 13:46 9,2 C 8,3 C 66 % 1017,6 hPa 0,0 l/m 2 min 0 min 789 W/m 39,7 km/h (6 Bft)
01.04.2015 13:48 9,2 C 8,3 C 67 % 1017,6 hPa 0,0 l/m 2 min 0 min 810 W/m 43,9 km/h (6 Bft)
01.04.2015 13:50 9,2 C 8,9 C 67 % 1017,5 hPa 0,0 l/m 2 min 0 min 816 W/m 39,7 km/h (6 Bft)
01.04.2015 13:52 9,3 C 8,9 C 66 % 1017,7 hPa 0,0 l/m 2 min 0 min 848 W/m 54,4 km/h (7 Bft)
01.04.2015 13:54 9,3 C 8,9 C 65 % 1017,7 hPa 0,0 l/m 2 min 0 min 841 W/m 52,3 km/h (7 Bft)
01.04.2015 13:56 9,3 C 8,9 C 66 % 1017,7 hPa 0,0 l/m 2 min 0 min 828 W/m 35,6 km/h (5 Bft)
01.04.2015 13:58 9,4 C 9,4 C 66 % 1017,8 hPa 0,0 l/m 2 min 0 min 886 W/m 56,5 km/h (7 Bft)
01.04.2015 14:00 9,5 C 10,0 C 66 % 1017,7 hPa 0,0 l/m 2 min 0 min 958 W/m 41,8 km/h (6 Bft)
01.04.2015 14:02 9,6 C 9,4 C 65 % 1017,9 hPa 0,0 l/m 2 min 0 min 933 W/m 37,7 km/h (5 Bft)
01.04.2015 14:04 9,5 C 8,9 C 64 % 1017,9 hPa 0,0 l/m 2 min 2 min 480 W/m 48,1 km/h (6 Bft)
01.04.2015 14:06 9,5 C 8,9 C 63 % 1017,9 hPa 0,0 l/m 2 min 2 min 443 W/m 43,9 km/h (6 Bft)
01.04.2015 14:08 9,4 C 8,9 C 64 % 1017,7 hPa 0,0 l/m 2 min 0 min 979 W/m 52,3 km/h (7 Bft)
01.04.2015 14:10 9,4 C 8,3 C 64 % 1017,7 hPa 0,0 l/m 2 min 0 min 979 W/m 37,7 km/h (5 Bft)
01.04.2015 14:12 9,3 C 8,3 C 63 % 1017,9 hPa 0,0 l/m 0 min 0 min 326 W/m 56,5 km/h (7 Bft)
01.04.2015 14:14 9,2 C 7,8 C 63 % 1017,9 hPa 0,0 l/m 0 min 2 min 316 W/m 35,6 km/h (5 Bft)
01.04.2015 14:16 9,0 C 7,8 C 65 % 1017,8 hPa 0,0 l/m 0 min 2 min 234 W/m 48,1 km/h (6 Bft)
01.04.2015 14:18 8,9 C 6,7 C 66 % 1017,9 hPa 0,0 l/m 2 min 2 min 668 W/m 56,5 km/h (7 Bft)
01.04.2015 14:20 8,7 C 6,7 C 67 % 1017,9 hPa 0,0 l/m 0 min 2 min 301 W/m 41,8 km/h (6 Bft)
01.04.2015 14:22 8,7 C 7,2 C 68 % 1017,8 hPa 0,0 l/m 0 min 0 min 318 W/m 41,8 km/h (6 Bft)
01.04.2015 14:24 8,6 C 7,8 C 68 % 1018,0 hPa 0,0 l/m 0 min 0 min 319 W/m 41,8 km/h (6 Bft)
01.04.2015 14:26 8,4 C 7,2 C 67 % 1018,0 hPa 0,0 l/m 0 min 2 min 274 W/m 50,2 km/h (7 Bft)
01.04.2015 14:28 8,3 C 6,1 C 68 % 1018,2 hPa 0,0 l/m 0 min 2 min 118 W/m 52,3 km/h (7 Bft)
01.04.2015 14:30 8,0 C 5,6 C 70 % 1018,2 hPa 0,0 l/m 0 min 2 min 181 W/m 54,4 km/h (7 Bft)
01.04.2015 14:32 7,7 C 5,6 C 72 % 1018,1 hPa 0,0 l/m 0 min 2 min 312 W/m 46,0 km/h (6 Bft)
01.04.2015 14:34 7,6 C 6,1 C 73 % 1018,2 hPa 0,0 l/m 0 min 0 min 312 W/m 39,7 km/h (6 Bft)
01.04.2015 14:36 7,5 C 6,1 C 74 % 1018,0 hPa 0,0 l/m 2 min 0 min 330 W/m 37,7 km/h (5 Bft)
01.04.2015 14:38 7,4 C 6,1 C 75 % 1018,0 hPa 0,0 l/m 0 min 0 min 265 W/m 37,7 km/h (5 Bft)
01.04.2015 14:40 7,3 C 6,1 C 75 % 1018,0 hPa 0,0 l/m 0 min 0 min 232 W/m 41,8 km/h (6 Bft)
01.04.2015 14:42 7,2 C 6,1 C 75 % 1017,9 hPa 0,0 l/m 0 min 0 min 163 W/m 33,5 km/h (5 Bft)
01.04.2015 14:44 7,2 C 5,6 C 74 % 1017,9 hPa 0,0 l/m 0 min 0 min 114 W/m 39,7 km/h (6 Bft)
01.04.2015 14:46 7,1 C 5,6 C 74 % 1018,0 hPa 0,0 l/m 0 min 2 min 74 W/m 33,5 km/h (5 Bft)
01.04.2015 14:48 7,1 C 5,6 C 74 % 1017,8 hPa 0,0 l/m 0 min 0 min 76 W/m 27,2 km/h (4 Bft)
01.04.2015 14:50 7,1 C 6,1 C 74 % 1018,0 hPa 0,0 l/m 0 min 2 min 114 W/m 31,4 km/h (5 Bft)
01.04.2015 14:52 7,1 C 6,1 C 73 % 1017,9 hPa 0,0 l/m 0 min 0 min 172 W/m 29,3 km/h (5 Bft)
01.04.2015 14:54 7,1 C 7,2 C 73 % 1017,9 hPa 0,0 l/m 2 min 0 min 575 W/m 39,7 km/h (6 Bft)
01.04.2015 14:56 7,2 C 7,8 C 72 % 1017,9 hPa 0,0 l/m 2 min 0 min 644 W/m 50,2 km/h (7 Bft)
01.04.2015 14:58 7,3 C 7,2 C 72 % 1017,9 hPa 0,0 l/m 0 min 0 min 232 W/m 48,1 km/h (6 Bft)
01.04.2015 15:00 7,4 C 7,2 C 72 % 1017,8 hPa 0,0 l/m 0 min 0 min 208 W/m 33,5 km/h (5 Bft)
01.04.2015 15:02 7,5 C 7,2 C 71 % 1017,8 hPa 0,0 l/m 0 min 0 min 153 W/m 35,6 km/h (5 Bft)
01.04.2015 15:04 7,5 C 6,7 C 71 % 1018,0 hPa 0,0 l/m 0 min 2 min 96 W/m 41,8 km/h (6 Bft)
01.04.2015 15:06 7,5 C 6,1 C 71 % 1017,9 hPa 0,0 l/m 0 min 2 min 131 W/m 48,1 km/h (6 Bft)
01.04.2015 15:08 7,5 C 7,8 C 72 % 1018,0 hPa 0,0 l/m 0 min 2 min 149 W/m 33,5 km/h (5 Bft)
01.04.2015 15:10 7,6 C 8,3 C 72 % 1018,0 hPa 0,0 l/m 2 min 2 min 361 W/m 39,7 km/h (6 Bft)
01.04.2015 15:12 7,7 C 8,3 C 72 % 1018,0 hPa 0,0 l/m 2 min 0 min 542 W/m 31,4 km/h (5 Bft)
01.04.2015 15:14 7,7 C 7,8 C 72 % 1017,9 hPa 0,0 l/m 0 min 0 min 199 W/m 31,4 km/h (5 Bft)
01.04.2015 15:16 7,7 C 7,8 C 71 % 1017,9 hPa 0,0 l/m 0 min 2 min 238 W/m 39,7 km/h (6 Bft)
01.04.2015 15:18 7,8 C 8,3 C 71 % 1018,0 hPa 0,0 l/m 2 min 2 min 329 W/m 39,7 km/h (6 Bft)
01.04.2015 15:20 7,8 C 7,8 C 70 % 1017,9 hPa 0,0 l/m 0 min 0 min 236 W/m 52,3 km/h (7 Bft)
01.04.2015 15:22 7,8 C 7,2 C 68 % 1017,9 hPa 0,0 l/m 0 min 0 min 181 W/m 48,1 km/h (6 Bft)
01.04.2015 15:24 7,9 C 7,2 C 68 % 1017,9 hPa 0,0 l/m 0 min 0 min 151 W/m 46,0 km/h (6 Bft)
01.04.2015 15:26 7,8 C 7,2 C 66 % 1017,9 hPa 0,0 l/m 0 min 0 min 135 W/m 35,6 km/h (5 Bft)
01.04.2015 15:28 7,9 C 6,7 C 66 % 1017,8 hPa 0,0 l/m 0 min 0 min 136 W/m 41,8 km/h (6 Bft)
01.04.2015 15:30 7,9 C 7,2 C 66 % 1017,9 hPa 0,0 l/m 0 min 0 min 154 W/m 27,2 km/h (4 Bft)
01.04.2015 15:32 7,9 C 7,2 C 67 % 1017,9 hPa 0,0 l/m 0 min 0 min 204 W/m 29,3 km/h (5 Bft)
01.04.2015 15:34 7,9 C 7,2 C 66 % 1017,9 hPa 0,0 l/m 0 min 0 min 199 W/m 43,9 km/h (6 Bft)
01.04.2015 15:36 7,9 C 7,2 C 65 % 1017,9 hPa 0,0 l/m 0 min 2 min 218 W/m 31,4 km/h (5 Bft)
01.04.2015 15:38 7,9 C 7,2 C 65 % 1017,8 hPa 0,0 l/m 0 min 0 min 207 W/m 41,8 km/h (6 Bft)
01.04.2015 15:40 7,9 C 7,2 C 65 % 1017,9 hPa 0,0 l/m 0 min 0 min 107 W/m 39,7 km/h (6 Bft)
01.04.2015 15:42 7,9 C 6,7 C 65 % 1017,9 hPa 0,0 l/m 0 min 2 min 64 W/m 48,1 km/h (6 Bft)
01.04.2015 15:44 7,9 C 6,1 C 65 % 1018,0 hPa 0,0 l/m 0 min 2 min 85 W/m 62,8 km/h (8 Bft)
01.04.2015 15:46 7,8 C 6,1 C 66 % 1017,9 hPa 0,0 l/m 0 min 2 min 136 W/m 48,1 km/h (6 Bft)
01.04.2015 15:48 7,8 C 6,1 C 68 % 1017,9 hPa 0,0 l/m 0 min 2 min 188 W/m 41,8 km/h (6 Bft)
01.04.2015 15:50 7,7 C 6,1 C 68 % 1018,0 hPa 0,0 l/m 0 min 0 min 172 W/m 35,6 km/h (5 Bft)
01.04.2015 15:52 7,6 C 6,1 C 68 % 1018,2 hPa 0,0 l/m 0 min 0 min 135 W/m 39,7 km/h (6 Bft)
01.04.2015 15:54 7,6 C 6,1 C 69 % 1018,0 hPa 0,0 l/m 0 min 2 min 145 W/m 35,6 km/h (5 Bft)
01.04.2015 15:56 7,5 C 6,1 C 68 % 1018,0 hPa 0,0 l/m 0 min 2 min 155 W/m 52,3 km/h (7 Bft)
01.04.2015 15:58 7,4 C 6,1 C 68 % 1018,0 hPa 0,0 l/m 0 min 0 min 112 W/m 39,7 km/h (6 Bft)
01.04.2015 16:00 7,4 C 6,1 C 68 % 1017,9 hPa 0,0 l/m 0 min 2 min 103 W/m 37,7 km/h (5 Bft)
01.04.2015 16:02 7,4 C 6,1 C 68 % 1018,0 hPa 0,0 l/m 0 min 2 min 100 W/m 41,8 km/h (6 Bft)
01.04.2015 16:04 7,4 C 6,1 C 68 % 1018,2 hPa 0,0 l/m 0 min 2 min 132 W/m 29,3 km/h (5 Bft)
01.04.2015 16:06 7,4 C 6,1 C 69 % 1018,1 hPa 0,0 l/m 0 min 2 min 123 W/m 39,7 km/h (6 Bft)
01.04.2015 16:08 7,4 C 5,6 C 69 % 1018,2 hPa 0,0 l/m 0 min 0 min 75 W/m 31,4 km/h (5 Bft)
01.04.2015 16:10 7,3 C 5,6 C 69 % 1018,1 hPa 0,0 l/m 0 min 2 min 78 W/m 37,7 km/h (5 Bft)
01.04.2015 16:12 7,3 C 5,0 C 69 % 1018,2 hPa 0,0 l/m 0 min 2 min 59 W/m 43,9 km/h (6 Bft)
01.04.2015 16:14 7,2 C 5,0 C 70 % 1018,3 hPa 0,0 l/m 0 min 2 min 47 W/m 48,1 km/h (6 Bft)
01.04.2015 16:16 7,1 C 4,4 C 71 % 1018,4 hPa 0,0 l/m 0 min 2 min 45 W/m 50,2 km/h (7 Bft)
01.04.2015 16:18 6,9 C 3,9 C 73 % 1018,5 hPa 0,0 l/m 0 min 2 min 48 W/m 50,2 km/h (7 Bft)
01.04.2015 16:20 6,8 C 3,3 C 74 % 1018,4 hPa 0,2 l/m 0 min 2 min 59 W/m 54,4 km/h (7 Bft)
01.04.2015 16:22 6,6 C 5,0 C 75 % 1018,3 hPa 0,0 l/m 0 min 2 min 196 W/m 39,7 km/h (6 Bft)
01.04.2015 16:24 6,6 C 5,6 C 77 % 1018,2 hPa 0,0 l/m 2 min 2 min 528 W/m 33,5 km/h (5 Bft)
01.04.2015 16:26 6,6 C 5,6 C 79 % 1018,3 hPa 0,0 l/m 2 min 0 min 488 W/m 43,9 km/h (6 Bft)
01.04.2015 16:28 6,5 C 5,0 C 79 % 1018,2 hPa 0,0 l/m 0 min 0 min 103 W/m 31,4 km/h (5 Bft)
01.04.2015 16:30 6,5 C 4,4 C 79 % 1018,2 hPa 0,0 l/m 0 min 2 min 134 W/m 41,8 km/h (6 Bft)
01.04.2015 16:32 6,4 C 5,0 C 79 % 1018,3 hPa 0,0 l/m 0 min 2 min 217 W/m 31,4 km/h (5 Bft)
01.04.2015 16:34 6,4 C 5,0 C 79 % 1018,3 hPa 0,0 l/m 0 min 2 min 146 W/m 37,7 km/h (5 Bft)
01.04.2015 16:36 6,4 C 5,6 C 79 % 1018,2 hPa 0,0 l/m 0 min 2 min 151 W/m 37,7 km/h (5 Bft)
01.04.2015 16:38 6,6 C 5,6 C 79 % 1018,3 hPa 0,0 l/m 2 min 2 min 474 W/m 43,9 km/h (6 Bft)
01.04.2015 16:40 6,7 C 6,1 C 78 % 1018,1 hPa 0,0 l/m 2 min 2 min 485 W/m 29,3 km/h (5 Bft)
01.04.2015 16:42 6,8 C 6,1 C 78 % 1018,1 hPa 0,0 l/m 2 min 2 min 474 W/m 39,7 km/h (6 Bft)
01.04.2015 16:44 7,0 C 6,1 C 77 % 1018,1 hPa 0,0 l/m 2 min 2 min 431 W/m 35,6 km/h (5 Bft)
01.04.2015 16:46 7,1 C 5,6 C 76 % 1018,1 hPa 0,0 l/m 0 min 2 min 70 W/m 29,3 km/h (5 Bft)
01.04.2015 16:48 7,1 C 5,6 C 76 % 1018,2 hPa 0,0 l/m 0 min 2 min 63 W/m 25,1 km/h (4 Bft)
01.04.2015 16:50 7,1 C 5,0 C 75 % 1018,4 hPa 0,0 l/m 0 min 2 min 84 W/m 50,2 km/h (7 Bft)
01.04.2015 16:52 7,1 C 5,0 C 74 % 1018,3 hPa 0,0 l/m 0 min 2 min 174 W/m 39,7 km/h (6 Bft)
01.04.2015 16:54 7,1 C 5,0 C 74 % 1018,2 hPa 0,0 l/m 2 min 2 min 235 W/m 33,5 km/h (5 Bft)
01.04.2015 16:56 7,1 C 5,6 C 74 % 1018,2 hPa 0,0 l/m 0 min 2 min 206 W/m 31,4 km/h (5 Bft)
01.04.2015 16:58 7,2 C 6,7 C 75 % 1018,2 hPa 0,0 l/m 2 min 2 min 507 W/m 29,3 km/h (5 Bft)
01.04.2015 17:00 7,2 C 7,2 C 74 % 1018,1 hPa 0,0 l/m 2 min 2 min 476 W/m 48,1 km/h (6 Bft)
01.04.2015 17:02 7,3 C 7,2 C 74 % 1018,2 hPa 0,0 l/m 2 min 2 min 418 W/m 33,5 km/h (5 Bft)
01.04.2015 17:04 7,4 C 6,7 C 72 % 1018,2 hPa 0,0 l/m 0 min 2 min 86 W/m 39,7 km/h (6 Bft)
01.04.2015 17:06 7,4 C 6,1 C 72 % 1018,2 hPa 0,0 l/m 0 min 2 min 55 W/m 31,4 km/h (5 Bft)
01.04.2015 17:08 7,4 C 6,1 C 72 % 1018,3 hPa 0,0 l/m 0 min 2 min 35 W/m 37,7 km/h (5 Bft)
01.04.2015 17:10 7,4 C 5,0 C 72 % 1018,4 hPa 0,0 l/m 0 min 2 min 52 W/m 46,0 km/h (6 Bft)
01.04.2015 17:12 7,3 C 5,0 C 74 % 1018,4 hPa 0,0 l/m 0 min 2 min 199 W/m 50,2 km/h (7 Bft)
01.04.2015 17:14 7,3 C 5,6 C 76 % 1018,3 hPa 0,0 l/m 2 min 2 min 461 W/m 29,3 km/h (5 Bft)
01.04.2015 17:16 7,2 C 6,1 C 77 % 1018,3 hPa 0,0 l/m 2 min 0 min 448 W/m 35,6 km/h (5 Bft)
01.04.2015 17:18 7,2 C 5,6 C 77 % 1018,3 hPa 0,0 l/m 2 min 2 min 295 W/m 39,7 km/h (6 Bft)
01.04.2015 17:20 7,1 C 5,0 C 77 % 1018,3 hPa 0,0 l/m 0 min 0 min 128 W/m 29,3 km/h (5 Bft)
01.04.2015 17:22 7,1 C 5,0 C 77 % 1018,4 hPa 0,0 l/m 0 min 0 min 109 W/m 27,2 km/h (4 Bft)
01.04.2015 17:24 6,9 C 5,0 C 77 % 1018,6 hPa 0,0 l/m 0 min 2 min 69 W/m 41,8 km/h (6 Bft)
01.04.2015 17:26 6,9 C 5,0 C 76 % 1018,9 hPa 0,0 l/m 0 min 2 min 34 W/m 48,1 km/h (6 Bft)
01.04.2015 17:28 6,8 C 4,4 C 77 % 1019,1 hPa 0,0 l/m 0 min 2 min 26 W/m 54,4 km/h (7 Bft)
01.04.2015 17:30 6,7 C 3,9 C 77 % 1018,9 hPa 0,0 l/m 0 min 2 min 44 W/m 50,2 km/h (7 Bft)
01.04.2015 17:32 6,6 C 3,9 C 78 % 1018,7 hPa 0,0 l/m 0 min 2 min 54 W/m 37,7 km/h (5 Bft)
01.04.2015 17:34 6,4 C 3,9 C 79 % 1018,7 hPa 0,2 l/m 0 min 2 min 78 W/m 39,7 km/h (6 Bft)
01.04.2015 17:36 6,4 C 3,9 C 80 % 1018,6 hPa 0,0 l/m 0 min 2 min 120 W/m 23,0 km/h (4 Bft)
01.04.2015 17:38 6,2 C 3,9 C 80 % 1018,6 hPa 0,0 l/m 0 min 2 min 116 W/m 29,3 km/h (5 Bft)
01.04.2015 17:40 6,2 C 3,9 C 80 % 1018,4 hPa 0,0 l/m 0 min 0 min 96 W/m 18,8 km/h (3 Bft)
01.04.2015 17:42 6,1 C 4,4 C 80 % 1018,5 hPa 0,0 l/m 0 min 0 min 101 W/m 23,0 km/h (4 Bft)
01.04.2015 17:44 6,1 C 4,4 C 81 % 1018,4 hPa 0,0 l/m 0 min 0 min 163 W/m 20,9 km/h (4 Bft)
01.04.2015 17:46 6,1 C 4,4 C 81 % 1018,5 hPa 0,0 l/m 0 min 0 min 133 W/m 29,3 km/h (5 Bft)
01.04.2015 17:48 6,1 C 4,4 C 81 % 1018,3 hPa 0,0 l/m 0 min 0 min 128 W/m 16,7 km/h (3 Bft)
01.04.2015 17:50 6,1 C 5,0 C 81 % 1018,3 hPa 0,0 l/m 2 min 0 min 173 W/m 14,6 km/h (3 Bft)
01.04.2015 17:52 6,1 C 5,0 C 82 % 1018,2 hPa 0,0 l/m 2 min 0 min 174 W/m 14,6 km/h (3 Bft)
01.04.2015 17:54 6,2 C 5,0 C 82 % 1018,3 hPa 0,0 l/m 0 min 0 min 137 W/m 25,1 km/h (4 Bft)
01.04.2015 17:56 6,2 C 5,0 C 81 % 1018,3 hPa 0,0 l/m 0 min 0 min 111 W/m 20,9 km/h (4 Bft)
01.04.2015 17:58 6,2 C 5,0 C 81 % 1018,3 hPa 0,0 l/m 0 min 0 min 111 W/m 16,7 km/h (3 Bft)
01.04.2015 18:00 6,2 C 5,0 C 81 % 1018,3 hPa 0,0 l/m 0 min 2 min 98 W/m 23,0 km/h (4 Bft)
01.04.2015 18:02 6,2 C 5,0 C 81 % 1018,2 hPa 0,0 l/m 0 min 0 min 102 W/m 31,4 km/h (5 Bft)
01.04.2015 18:06 6,3 C 5,6 C 80 % 1018,2 hPa 0,0 l/m 0 min 0 min 146 W/m 33,5 km/h (5 Bft)
01.04.2015 18:08 6,4 C 5,6 C 79 % 1018,2 hPa 0,0 l/m 2 min 0 min 174 W/m 20,9 km/h (4 Bft)
01.04.2015 18:10 6,5 C 6,1 C 79 % 1018,2 hPa 0,0 l/m 0 min 0 min 143 W/m 41,8 km/h (6 Bft)
01.04.2015 18:12 6,6 C 6,1 C 78 % 1018,2 hPa 0,0 l/m 2 min 0 min 202 W/m 31,4 km/h (5 Bft)
01.04.2015 18:14 6,7 C 6,1 C 76 % 1018,1 hPa 0,0 l/m 2 min 0 min 179 W/m 23,0 km/h (4 Bft)
01.04.2015 18:16 6,9 C 6,7 C 75 % 1018,2 hPa 0,0 l/m 2 min 0 min 152 W/m 58,6 km/h (7 Bft)
01.04.2015 18:18 7,0 C 6,7 C 73 % 1018,2 hPa 0,0 l/m 2 min 0 min 149 W/m 39,7 km/h (6 Bft)
01.04.2015 18:20 7,2 C 6,7 C 71 % 1018,1 hPa 0,0 l/m 2 min 0 min 137 W/m 29,3 km/h (5 Bft)
01.04.2015 18:22 7,3 C 6,7 C 70 % 1018,3 hPa 0,0 l/m 0 min 0 min 130 W/m 37,7 km/h (5 Bft)
01.04.2015 18:24 7,3 C 6,7 C 70 % 1018,2 hPa 0,0 l/m 0 min 0 min 127 W/m 48,1 km/h (6 Bft)
01.04.2015 18:26 7,4 C 6,7 C 68 % 1018,3 hPa 0,0 l/m 2 min 2 min 127 W/m 41,8 km/h (6 Bft)
01.04.2015 18:28 7,5 C 6,7 C 67 % 1018,2 hPa 0,0 l/m 2 min 0 min 128 W/m 39,7 km/h (6 Bft)
01.04.2015 18:30 7,6 C 6,7 C 66 % 1018,2 hPa 0,0 l/m 2 min 0 min 147 W/m 37,7 km/h (5 Bft)
01.04.2015 18:32 7,6 C 6,7 C 66 % 1018,3 hPa 0,0 l/m 2 min 0 min 126 W/m 43,9 km/h (6 Bft)
01.04.2015 18:34 7,7 C 6,7 C 66 % 1018,3 hPa 0,0 l/m 2 min 0 min 116 W/m 27,2 km/h (4 Bft)
01.04.2015 18:36 7,7 C 6,7 C 66 % 1018,3 hPa 0,0 l/m 0 min 0 min 113 W/m 37,7 km/h (5 Bft)
01.04.2015 18:38 7,7 C 6,7 C 65 % 1018,2 hPa 0,0 l/m 0 min 0 min 109 W/m 35,6 km/h (5 Bft)
01.04.2015 18:40 7,8 C 6,7 C 65 % 1018,2 hPa 0,0 l/m 0 min 0 min 104 W/m 27,2 km/h (4 Bft)
01.04.2015 18:42 7,8 C 6,1 C 65 % 1018,2 hPa 0,0 l/m 0 min 0 min 99 W/m 37,7 km/h (5 Bft)
01.04.2015 18:44 7,8 C 6,1 C 64 % 1018,3 hPa 0,0 l/m 0 min 0 min 97 W/m 41,8 km/h (6 Bft)
01.04.2015 18:46 7,8 C 6,1 C 65 % 1018,2 hPa 0,0 l/m 0 min 0 min 95 W/m 25,1 km/h (4 Bft)
01.04.2015 18:48 7,8 C 6,1 C 65 % 1018,3 hPa 0,0 l/m 0 min 0 min 93 W/m 18,8 km/h (3 Bft)
01.04.2015 18:50 7,8 C 6,1 C 65 % 1018,2 hPa 0,0 l/m 0 min 0 min 90 W/m 29,3 km/h (5 Bft)
01.04.2015 18:52 7,8 C 6,1 C 65 % 1018,2 hPa 0,0 l/m 0 min 0 min 88 W/m 20,9 km/h (4 Bft)
01.04.2015 18:54 7,8 C 6,1 C 65 % 1018,3 hPa 0,0 l/m 0 min 0 min 87 W/m 33,5 km/h (5 Bft)
01.04.2015 18:56 7,8 C 6,1 C 66 % 1018,2 hPa 0,0 l/m 0 min 2 min 85 W/m 29,3 km/h (5 Bft)
01.04.2015 18:58 7,8 C 6,7 C 65 % 1018,2 hPa 0,0 l/m 0 min 0 min 83 W/m 20,9 km/h (4 Bft)
01.04.2015 19:00 7,8 C 6,1 C 65 % 1018,2 hPa 0,0 l/m 0 min 0 min 79 W/m 31,4 km/h (5 Bft)
01.04.2015 19:02 7,8 C 6,1 C 66 % 1018,2 hPa 0,0 l/m 0 min 0 min 76 W/m 18,8 km/h (3 Bft)
01.04.2015 19:04 7,8 C 6,1 C 66 % 1018,2 hPa 0,0 l/m 0 min 0 min 73 W/m 25,1 km/h (4 Bft)
01.04.2015 19:05 7,8 C 6,1 C 66 % 1018,3 hPa 0,0 l/m 0 min 0 min 73 W/m 25,1 km/h (4 Bft)
01.04.2015 19:10 7,8 C 6,1 C 66 % 1018,3 hPa 0,0 l/m 0 min 0 min 67 W/m 31,4 km/h (5 Bft)
01.04.2015 19:12 7,7 C 6,1 C 66 % 1018,2 hPa 0,0 l/m 0 min 2 min 63 W/m 27,2 km/h (4 Bft)
01.04.2015 19:14 7,8 C 6,1 C 66 % 1018,2 hPa 0,0 l/m 0 min 0 min 61 W/m 27,2 km/h (4 Bft)
01.04.2015 19:16 7,7 C 6,1 C 66 % 1018,2 hPa 0,0 l/m 0 min 0 min 56 W/m 25,1 km/h (4 Bft)
01.04.2015 19:18 7,7 C 6,1 C 66 % 1018,3 hPa 0,0 l/m 0 min 0 min 53 W/m 31,4 km/h (5 Bft)
01.04.2015 19:20 7,7 C 6,1 C 66 % 1018,3 hPa 0,0 l/m 0 min 0 min 51 W/m 31,4 km/h (5 Bft)
01.04.2015 19:22 7,7 C 6,1 C 66 % 1018,3 hPa 0,0 l/m 0 min 0 min 50 W/m 23,0 km/h (4 Bft)
01.04.2015 19:24 7,7 C 6,1 C 66 % 1018,3 hPa 0,0 l/m 0 min 0 min 46 W/m 27,2 km/h (4 Bft)
01.04.2015 19:26 7,7 C 6,1 C 66 % 1018,3 hPa 0,0 l/m 0 min 0 min 45 W/m 35,6 km/h (5 Bft)
01.04.2015 19:28 7,7 C 6,1 C 67 % 1018,3 hPa 0,0 l/m 0 min 0 min 42 W/m 33,5 km/h (5 Bft)
01.04.2015 19:30 7,6 C 6,1 C 66 % 1018,3 hPa 0,0 l/m 0 min 2 min 40 W/m 39,7 km/h (6 Bft)
01.04.2015 19:32 7,6 C 6,1 C 67 % 1018,3 hPa 0,0 l/m 0 min 0 min 38 W/m 23,0 km/h (4 Bft)
01.04.2015 19:34 7,6 C 6,1 C 67 % 1018,3 hPa 0,0 l/m 0 min 0 min 36 W/m 37,7 km/h (5 Bft)
01.04.2015 19:36 7,6 C 5,6 C 67 % 1018,3 hPa 0,0 l/m 0 min 0 min 33 W/m 37,7 km/h (5 Bft)
01.04.2015 19:38 7,6 C 5,6 C 67 % 1018,2 hPa 0,0 l/m 0 min 0 min 30 W/m 29,3 km/h (5 Bft)
01.04.2015 19:40 7,5 C 5,6 C 67 % 1018,3 hPa 0,0 l/m 0 min 0 min 27 W/m 23,0 km/h (4 Bft)
01.04.2015 19:42 7,5 C 5,6 C 67 % 1018,3 hPa 0,0 l/m 0 min 0 min 24 W/m 25,1 km/h (4 Bft)
01.04.2015 19:44 7,5 C 5,6 C 67 % 1018,3 hPa 0,0 l/m 0 min 0 min 20 W/m 31,4 km/h (5 Bft)
01.04.2015 19:46 7,4 C 5,6 C 67 % 1018,2 hPa 0,0 l/m 0 min 0 min 18 W/m 25,1 km/h (4 Bft)
01.04.2015 19:48 7,4 C 5,6 C 68 % 1018,2 hPa 0,0 l/m 0 min 0 min 17 W/m 29,3 km/h (5 Bft)
01.04.2015 19:50 7,4 C 5,6 C 67 % 1018,2 hPa 0,0 l/m 0 min 0 min 14 W/m 20,9 km/h (4 Bft)
01.04.2015 19:52 7,4 C 5,6 C 68 % 1018,2 hPa 0,0 l/m 0 min 0 min 12 W/m 29,3 km/h (5 Bft)
01.04.2015 19:54 7,4 C 5,6 C 68 % 1018,2 hPa 0,0 l/m 2 min 0 min 11 W/m 39,7 km/h (6 Bft)
01.04.2015 19:56 7,4 C 5,6 C 68 % 1018,2 hPa 0,0 l/m 0 min 0 min 9 W/m 31,4 km/h (5 Bft)
01.04.2015 19:58 7,3 C 5,6 C 68 % 1018,2 hPa 0,0 l/m 0 min 0 min 8 W/m 27,2 km/h (4 Bft)
01.04.2015 20:00 7,3 C 5,6 C 68 % 1018,2 hPa 0,0 l/m 0 min 0 min 7 W/m 18,8 km/h (3 Bft)
01.04.2015 20:02 7,3 C 5,6 C 68 % 1018,3 hPa 0,0 l/m 0 min 0 min 5 W/m 18,8 km/h (3 Bft)
01.04.2015 20:04 7,3 C 5,6 C 68 % 1018,2 hPa 0,0 l/m 0 min 0 min 5 W/m 29,3 km/h (5 Bft)
01.04.2015 20:06 7,3 C 5,6 C 68 % 1018,2 hPa 0,0 l/m 0 min 0 min 5 W/m 25,1 km/h (4 Bft)
01.04.2015 20:08 7,3 C 5,6 C 68 % 1018,2 hPa 0,0 l/m 0 min 0 min 1 W/m 18,8 km/h (3 Bft)
01.04.2015 20:10 7,2 C 5,0 C 68 % 1018,2 hPa 0,0 l/m 0 min 0 min 0 W/m 35,6 km/h (5 Bft)
01.04.2015 20:12 7,2 C 5,6 C 68 % 1018,1 hPa 0,0 l/m 0 min 0 min 0 W/m 23,0 km/h (4 Bft)
01.04.2015 20:14 7,2 C 5,6 C 68 % 1018,1 hPa 0,0 l/m 0 min 0 min 0 W/m 31,4 km/h (5 Bft)
01.04.2015 20:16 7,2 C 5,0 C 68 % 1018,2 hPa 0,0 l/m 0 min 0 min 0 W/m 12,6 km/h (3 Bft)
01.04.2015 20:18 7,2 C 5,0 C 68 % 1018,1 hPa 0,0 l/m 0 min 0 min 0 W/m 20,9 km/h (4 Bft)
01.04.2015 20:20 7,2 C 5,0 C 68 % 1018,1 hPa 0,0 l/m 0 min 0 min 0 W/m 20,9 km/h (4 Bft)
01.04.2015 20:22 7,2 C 5,0 C 69 % 1018,1 hPa 0,0 l/m 0 min 0 min 0 W/m 25,1 km/h (4 Bft)
01.04.2015 20:24 7,1 C 5,0 C 69 % 1018,2 hPa 0,0 l/m 0 min 0 min 0 W/m 18,8 km/h (3 Bft)
01.04.2015 20:26 7,1 C 5,0 C 69 % 1018,2 hPa 0,0 l/m 0 min 0 min 0 W/m 12,6 km/h (3 Bft)
01.04.2015 20:28 7,1 C 5,0 C 69 % 1018,1 hPa 0,0 l/m 0 min 0 min 0 W/m 18,8 km/h (3 Bft)
01.04.2015 20:30 7,1 C 5,0 C 69 % 1018,2 hPa 0,0 l/m 0 min 0 min 0 W/m 16,7 km/h (3 Bft)
01.04.2015 20:32 7,1 C 5,0 C 70 % 1018,1 hPa 0,0 l/m 0 min 0 min 0 W/m 12,6 km/h (3 Bft)
01.04.2015 20:34 7,0 C 5,0 C 70 % 1018,1 hPa 0,0 l/m 0 min 0 min 0 W/m 14,6 km/h (3 Bft)
01.04.2015 20:36 7,0 C 5,0 C 70 % 1018,2 hPa 0,0 l/m 0 min 0 min 0 W/m 16,7 km/h (3 Bft)
01.04.2015 20:38 6,9 C 5,0 C 70 % 1018,1 hPa 0,0 l/m 0 min 0 min 0 W/m 18,8 km/h (3 Bft)
01.04.2015 20:40 6,9 C 5,0 C 70 % 1018,1 hPa 0,0 l/m 0 min 0 min 0 W/m 14,6 km/h (3 Bft)
01.04.2015 20:42 6,9 C 5,0 C 71 % 1018,1 hPa 0,0 l/m 0 min 0 min 0 W/m 16,7 km/h (3 Bft)
01.04.2015 20:44 6,9 C 5,0 C 71 % 1018,0 hPa 0,0 l/m 0 min 0 min 0 W/m 12,6 km/h (3 Bft)
01.04.2015 20:46 6,9 C 5,0 C 71 % 1018,0 hPa 0,0 l/m 0 min 0 min 0 W/m 16,7 km/h (3 Bft)
01.04.2015 20:48 6,8 C 5,0 C 71 % 1018,0 hPa 0,0 l/m 0 min 0 min 0 W/m 12,6 km/h (3 Bft)
01.04.2015 20:50 6,8 C 5,0 C 72 % 1018,0 hPa 0,0 l/m 0 min 0 min 0 W/m 25,1 km/h (4 Bft)
01.04.2015 20:52 6,8 C 5,0 C 72 % 1018,0 hPa 0,0 l/m 0 min 0 min 0 W/m 16,7 km/h (3 Bft)
01.04.2015 20:54 6,8 C 5,0 C 72 % 1017,9 hPa 0,0 l/m 0 min 0 min 0 W/m 25,1 km/h (4 Bft)
01.04.2015 20:56 6,8 C 5,0 C 72 % 1017,9 hPa 0,0 l/m 0 min 0 min 0 W/m 23,0 km/h (4 Bft)
01.04.2015 20:58 6,8 C 5,0 C 72 % 1017,9 hPa 0,0 l/m 0 min 0 min 0 W/m 25,1 km/h (4 Bft)
01.04.2015 21:00 6,8 C 5,0 C 72 % 1017,9 hPa 0,0 l/m 0 min 0 min 0 W/m 27,2 km/h (4 Bft)
01.04.2015 21:02 6,8 C 5,0 C 72 % 1017,9 hPa 0,0 l/m 0 min 0 min 0 W/m 20,9 km/h (4 Bft)
01.04.2015 21:04 6,8 C 5,6 C 72 % 1017,8 hPa 0,0 l/m 0 min 0 min 0 W/m 20,9 km/h (4 Bft)
01.04.2015 21:06 6,8 C 5,6 C 72 % 1017,8 hPa 0,0 l/m 0 min 0 min 0 W/m 23,0 km/h (4 Bft)
01.04.2015 21:08 6,8 C 5,6 C 72 % 1017,8 hPa 0,0 l/m 0 min 0 min 0 W/m 25,1 km/h (4 Bft)
01.04.2015 21:10 6,9 C 5,6 C 72 % 1017,8 hPa 0,0 l/m 0 min 0 min 0 W/m 18,8 km/h (3 Bft)
01.04.2015 21:12 6,9 C 5,6 C 72 % 1017,8 hPa 0,0 l/m 0 min 0 min 0 W/m 25,1 km/h (4 Bft)
01.04.2015 21:14 6,9 C 5,6 C 72 % 1017,7 hPa 0,0 l/m 0 min 0 min 0 W/m 29,3 km/h (5 Bft)
01.04.2015 21:16 6,9 C 5,6 C 71 % 1017,7 hPa 0,0 l/m 0 min 0 min 0 W/m 23,0 km/h (4 Bft)
01.04.2015 21:18 7,0 C 5,6 C 72 % 1017,7 hPa 0,0 l/m 0 min 0 min 0 W/m 18,8 km/h (3 Bft)
01.04.2015 21:20 7,0 C 5,6 C 72 % 1017,7 hPa 0,0 l/m 0 min 0 min 0 W/m 23,0 km/h (4 Bft)
01.04.2015 21:22 7,0 C 5,6 C 72 % 1017,7 hPa 0,0 l/m 0 min 0 min 0 W/m 27,2 km/h (4 Bft)
01.04.2015 21:24 7,1 C 5,6 C 72 % 1017,6 hPa 0,0 l/m 0 min 2 min 0 W/m 23,0 km/h (4 Bft)
01.04.2015 21:26 7,1 C 5,6 C 72 % 1017,6 hPa 0,0 l/m 0 min 0 min 0 W/m 18,8 km/h (3 Bft)
01.04.2015 21:28 7,1 C 5,6 C 72 % 1017,5 hPa 0,0 l/m 0 min 2 min 0 W/m 20,9 km/h (4 Bft)
01.04.2015 21:30 7,1 C 5,6 C 72 % 1017,6 hPa 0,0 l/m 0 min 0 min 0 W/m 20,9 km/h (4 Bft)
01.04.2015 21:32 7,1 C 5,6 C 71 % 1017,5 hPa 0,0 l/m 0 min 0 min 0 W/m 31,4 km/h (5 Bft)
01.04.2015 21:34 7,1 C 5,6 C 71 % 1017,5 hPa 0,0 l/m 0 min 0 min 0 W/m 18,8 km/h (3 Bft)
01.04.2015 21:36 7,2 C 5,6 C 71 % 1017,4 hPa 0,0 l/m 0 min 0 min 0 W/m 33,5 km/h (5 Bft)
01.04.2015 21:38 7,2 C 5,6 C 70 % 1017,4 hPa 0,0 l/m 0 min 0 min 0 W/m 29,3 km/h (5 Bft)
01.04.2015 21:40 7,2 C 6,1 C 70 % 1017,4 hPa 0,0 l/m 0 min 0 min 0 W/m 27,2 km/h (4 Bft)
01.04.2015 21:42 7,3 C 5,6 C 70 % 1017,4 hPa 0,0 l/m 0 min 0 min 0 W/m 41,8 km/h (6 Bft)
01.04.2015 21:44 7,3 C 6,1 C 70 % 1017,4 hPa 0,0 l/m 0 min 0 min 0 W/m 37,7 km/h (5 Bft)
01.04.2015 21:46 7,3 C 5,6 C 70 % 1017,5 hPa 0,0 l/m 0 min 0 min 0 W/m 31,4 km/h (5 Bft)
01.04.2015 21:48 7,4 C 5,6 C 70 % 1017,4 hPa 0,0 l/m 0 min 0 min 0 W/m 20,9 km/h (4 Bft)
01.04.2015 21:50 7,4 C 5,6 C 70 % 1017,4 hPa 0,0 l/m 0 min 2 min 0 W/m 29,3 km/h (5 Bft)
01.04.2015 21:52 7,4 C 5,0 C 71 % 1017,4 hPa 0,0 l/m 0 min 2 min 0 W/m 25,1 km/h (4 Bft)
01.04.2015 21:54 7,4 C 5,0 C 72 % 1017,3 hPa 0,0 l/m 0 min 2 min 0 W/m 29,3 km/h (5 Bft)
01.04.2015 21:56 7,4 C 5,0 C 72 % 1017,4 hPa 0,0 l/m 0 min 2 min 0 W/m 29,3 km/h (5 Bft)
01.04.2015 21:58 7,3 C 4,4 C 73 % 1017,5 hPa 0,0 l/m 0 min 2 min 0 W/m 41,8 km/h (6 Bft)
01.04.2015 22:00 7,3 C 4,4 C 73 % 1017,3 hPa 0,0 l/m 0 min 2 min 0 W/m 41,8 km/h (6 Bft)
01.04.2015 22:02 7,2 C 4,4 C 74 % 1017,4 hPa 0,0 l/m 0 min 2 min 0 W/m 35,6 km/h (5 Bft)
01.04.2015 22:04 7,2 C 3,9 C 75 % 1017,4 hPa 0,0 l/m 0 min 2 min 0 W/m 43,9 km/h (6 Bft)
01.04.2015 22:06 7,1 C 3,9 C 75 % 1017,2 hPa 0,0 l/m 0 min 2 min 0 W/m 35,6 km/h (5 Bft)
01.04.2015 22:08 7,0 C 3,9 C 76 % 1017,1 hPa 0,0 l/m 0 min 2 min 0 W/m 37,7 km/h (5 Bft)
01.04.2015 22:10 6,9 C 3,9 C 77 % 1017,2 hPa 0,0 l/m 0 min 2 min 0 W/m 29,3 km/h (5 Bft)
01.04.2015 22:12 6,8 C 3,9 C 77 % 1017,2 hPa 0,0 l/m 0 min 2 min 0 W/m 31,4 km/h (5 Bft)
01.04.2015 22:14 6,8 C 3,9 C 77 % 1017,1 hPa 0,0 l/m 0 min 0 min 0 W/m 31,4 km/h (5 Bft)
01.04.2015 22:16 6,7 C 3,9 C 78 % 1017,1 hPa 0,0 l/m 0 min 0 min 0 W/m 27,2 km/h (4 Bft)
01.04.2015 22:18 6,7 C 4,4 C 78 % 1017,0 hPa 0,0 l/m 0 min 0 min 0 W/m 35,6 km/h (5 Bft)
01.04.2015 22:20 6,7 C 4,4 C 78 % 1017,0 hPa 0,0 l/m 0 min 0 min 0 W/m 27,2 km/h (4 Bft)
01.04.2015 22:22 6,6 C 4,4 C 78 % 1017,0 hPa 0,0 l/m 0 min 2 min 0 W/m 31,4 km/h (5 Bft)
01.04.2015 22:24 6,6 C 4,4 C 78 % 1017,0 hPa 0,0 l/m 0 min 0 min 0 W/m 29,3 km/h (5 Bft)
01.04.2015 22:26 6,6 C 4,4 C 79 % 1016,9 hPa 0,0 l/m 0 min 2 min 0 W/m 35,6 km/h (5 Bft)
01.04.2015 22:28 6,6 C 4,4 C 79 % 1016,9 hPa 0,0 l/m 0 min 0 min 0 W/m 39,7 km/h (6 Bft)
01.04.2015 22:30 6,6 C 4,4 C 79 % 1016,9 hPa 0,0 l/m 0 min 0 min 0 W/m 39,7 km/h (6 Bft)
01.04.2015 22:32 6,5 C 4,4 C 79 % 1016,8 hPa 0,0 l/m 0 min 2 min 0 W/m 31,4 km/h (5 Bft)
01.04.2015 22:34 6,5 C 4,4 C 79 % 1016,9 hPa 0,0 l/m 0 min 2 min 0 W/m 27,2 km/h (4 Bft)
01.04.2015 22:36 6,5 C 4,4 C 80 % 1016,7 hPa 0,0 l/m 0 min 0 min 0 W/m 33,5 km/h (5 Bft)
01.04.2015 22:38 6,5 C 4,4 C 80 % 1016,7 hPa 0,0 l/m 0 min 0 min 0 W/m 33,5 km/h (5 Bft)
01.04.2015 22:40 6,5 C 4,4 C 80 % 1016,7 hPa 0,0 l/m 0 min 0 min 0 W/m 33,5 km/h (5 Bft)
01.04.2015 22:42 6,5 C 4,4 C 80 % 1016,7 hPa 0,0 l/m 0 min 0 min 0 W/m 27,2 km/h (4 Bft)
01.04.2015 22:44 6,5 C 4,4 C 80 % 1016,6 hPa 0,0 l/m 0 min 0 min 0 W/m 35,6 km/h (5 Bft)
01.04.2015 22:46 6,5 C 5,0 C 80 % 1016,5 hPa 0,0 l/m 0 min 0 min 0 W/m 39,7 km/h (6 Bft)
01.04.2015 22:48 6,5 C 5,0 C 80 % 1016,5 hPa 0,0 l/m 0 min 0 min 0 W/m 37,7 km/h (5 Bft)
01.04.2015 22:50 6,6 C 5,0 C 80 % 1016,5 hPa 0,0 l/m 0 min 0 min 0 W/m 37,7 km/h (5 Bft)
01.04.2015 22:52 6,6 C 5,0 C 80 % 1016,5 hPa 0,0 l/m 0 min 0 min 0 W/m 46,0 km/h (6 Bft)
01.04.2015 22:54 6,6 C 5,0 C 80 % 1016,6 hPa 0,0 l/m 0 min 0 min 0 W/m 33,5 km/h (5 Bft)
01.04.2015 22:56 6,6 C 5,0 C 79 % 1016,5 hPa 0,0 l/m 0 min 0 min 0 W/m 27,2 km/h (4 Bft)
01.04.2015 22:58 6,6 C 5,0 C 80 % 1016,4 hPa 0,0 l/m 0 min 0 min 0 W/m 29,3 km/h (5 Bft)
01.04.2015 23:00 6,7 C 5,0 C 80 % 1016,5 hPa 0,0 l/m 0 min 0 min 0 W/m 37,7 km/h (5 Bft)
01.04.2015 23:02 6,7 C 5,0 C 79 % 1016,4 hPa 0,0 l/m 0 min 0 min 0 W/m 33,5 km/h (5 Bft)
01.04.2015 23:04 6,7 C 5,0 C 79 % 1016,4 hPa 0,0 l/m 0 min 0 min 0 W/m 35,6 km/h (5 Bft)
01.04.2015 23:06 6,7 C 5,0 C 79 % 1016,5 hPa 0,0 l/m 0 min 0 min 0 W/m 43,9 km/h (6 Bft)
01.04.2015 23:08 6,7 C 5,0 C 79 % 1016,5 hPa 0,0 l/m 0 min 0 min 0 W/m 37,7 km/h (5 Bft)
01.04.2015 23:10 6,7 C 5,6 C 79 % 1016,5 hPa 0,0 l/m 0 min 0 min 0 W/m 50,2 km/h (7 Bft)
01.04.2015 23:12 6,8 C 5,6 C 79 % 1016,4 hPa 0,0 l/m 0 min 0 min 0 W/m 37,7 km/h (5 Bft)
01.04.2015 23:14 6,8 C 5,6 C 79 % 1016,5 hPa 0,0 l/m 0 min 0 min 0 W/m 37,7 km/h (5 Bft)
01.04.2015 23:16 6,8 C 5,6 C 79 % 1016,5 hPa 0,0 l/m 0 min 0 min 0 W/m 43,9 km/h (6 Bft)
01.04.2015 23:18 6,8 C 5,6 C 79 % 1016,5 hPa 0,0 l/m 0 min 0 min 0 W/m 35,6 km/h (5 Bft)
01.04.2015 23:20 6,8 C 5,6 C 80 % 1016,6 hPa 0,0 l/m 0 min 2 min 0 W/m 48,1 km/h (6 Bft)
01.04.2015 23:22 6,8 C 5,0 C 80 % 1016,5 hPa 0,0 l/m 0 min 2 min 0 W/m 39,7 km/h (6 Bft)
01.04.2015 23:24 6,8 C 4,4 C 80 % 1016,5 hPa 0,0 l/m 0 min 2 min 0 W/m 33,5 km/h (5 Bft)
01.04.2015 23:26 6,8 C 4,4 C 81 % 1016,6 hPa 0,0 l/m 0 min 2 min 0 W/m 37,7 km/h (5 Bft)
01.04.2015 23:28 6,8 C 4,4 C 81 % 1016,5 hPa 0,0 l/m 0 min 2 min 0 W/m 48,1 km/h (6 Bft)
01.04.2015 23:30 6,7 C 4,4 C 81 % 1016,4 hPa 0,0 l/m 0 min 2 min 0 W/m 43,9 km/h (6 Bft)
01.04.2015 23:32 6,7 C 4,4 C 82 % 1016,4 hPa 0,0 l/m 0 min 2 min 0 W/m 31,4 km/h (5 Bft)
01.04.2015 23:34 6,6 C 4,4 C 82 % 1016,4 hPa 0,0 l/m 0 min 2 min 0 W/m 37,7 km/h (5 Bft)
01.04.2015 23:36 6,6 C 4,4 C 82 % 1016,4 hPa 0,0 l/m 0 min 0 min 0 W/m 31,4 km/h (5 Bft)
01.04.2015 23:38 6,5 C 4,4 C 83 % 1016,4 hPa 0,0 l/m 0 min 0 min 0 W/m 33,5 km/h (5 Bft)
01.04.2015 23:40 6,4 C 4,4 C 83 % 1016,3 hPa 0,0 l/m 0 min 0 min 0 W/m 54,4 km/h (7 Bft)
01.04.2015 23:42 6,4 C 4,4 C 83 % 1016,4 hPa 0,0 l/m 0 min 0 min 0 W/m 39,7 km/h (6 Bft)
01.04.2015 23:44 6,3 C 4,4 C 83 % 1016,4 hPa 0,0 l/m 0 min 2 min 0 W/m 41,8 km/h (6 Bft)
01.04.2015 23:46 6,3 C 4,4 C 84 % 1016,3 hPa 0,0 l/m 0 min 2 min 0 W/m 29,3 km/h (5 Bft)
01.04.2015 23:48 6,2 C 4,4 C 84 % 1016,3 hPa 0,0 l/m 0 min 0 min 0 W/m 50,2 km/h (7 Bft)
01.04.2015 23:50 6,2 C 4,4 C 84 % 1016,3 hPa 0,0 l/m 0 min 0 min 0 W/m 43,9 km/h (6 Bft)
01.04.2015 23:52 6,1 C 4,4 C 84 % 1016,3 hPa 0,0 l/m 0 min 0 min 0 W/m 43,9 km/h (6 Bft)
01.04.2015 23:54 6,1 C 4,4 C 85 % 1016,3 hPa 0,0 l/m 0 min 0 min 0 W/m 39,7 km/h (6 Bft)
01.04.2015 23:56 6,1 C 4,4 C 85 % 1016,2 hPa 0,0 l/m 0 min 0 min 0 W/m 37,7 km/h (5 Bft)
01.04.2015 23:58 6,0 C 4,4 C 85 % 1016,3 hPa 0,0 l/m 0 min 2 min 0 W/m 46,0 km/h (6 Bft)
_ Min-Zeit 09:20 01:28 14:06 00:00 - - - - 12:16
Minimum _ 3,4 C -0,6 C 63 % 1009,7 hPa - - - - 10,5 km/h (2 Bft)
_ Max-Zeit 14:02 14:00 10:10 17:28 01:24 09:28 01:10 13:14 15:44
Maximum _ 9,6 C 10,0 C 93 % 1019,1 hPa 0,2 l/m 2 min 2 min 991 W/m 62,8 km/h
W-NW (8 Bft)
Durchschnitt _ 5,9 C 4,2 C 78 % 1015,5 hPa #4,4 l/m #3:56 h #6:28 h 228 W/m 32,6 km/h (5 Bft)
© 2015 W. Hausmann